<?xml version="1.0" encoding="UTF-8" standalone="no" ?>
<gpx xmlns="http://www.topografix.com/GPX/1/1" xmlns:xsi="http://www.w3.org/2001/XMLSchema-instance" xsi:schemaLocation="http://www.topografix.com/GPX/1/1 http://www.topografix.com/GPX/1/1/gpx.xsd" version="1.1" creator="VisuGPX - https://www.visugpx.com">
  <metadata>
    <name>Mt aucellier</name>
    <desc><![CDATA[Descente du Mt aucellier, va vraiment falloir trouver un moyen de rendre le ration up/down meilleurs :D]]></desc>
  </metadata>
  <trk>
    <name><![CDATA[Descente du Mont aucellier]]></name>
    <cmt><![CDATA[Super tour de VTT avec el cedrico :D]]></cmt>
    <trkseg>
      <trkpt lat="44.13007" lon="7.04258">
        <ele>2203.2</ele>
        <time>2012-07-08T12:00:03Z</time>
      </trkpt>
      <trkpt lat="44.13007" lon="7.04258">
        <ele>2261</ele>
        <time>2012-07-08T12:01:07Z</time>
      </trkpt>
      <trkpt lat="44.13035" lon="7.04256">
        <ele>2258</ele>
        <time>2012-07-08T12:01:28Z</time>
      </trkpt>
      <trkpt lat="44.13096" lon="7.04271">
        <ele>2260</ele>
        <time>2012-07-08T12:01:58Z</time>
      </trkpt>
      <trkpt lat="44.13105" lon="7.04275">
        <ele>2261</ele>
        <time>2012-07-08T12:02:02Z</time>
      </trkpt>
      <trkpt lat="44.13105" lon="7.04275">
        <ele>2199.7</ele>
        <time>2012-07-08T12:02:13Z</time>
      </trkpt>
      <trkpt lat="44.13105" lon="7.04275">
        <ele>2199.7</ele>
        <time>2012-07-08T12:02:15Z</time>
      </trkpt>
      <trkpt lat="44.13105" lon="7.04275">
        <ele>2199.7</ele>
        <time>2012-07-08T12:02:26Z</time>
      </trkpt>
      <trkpt lat="44.13105" lon="7.04275">
        <ele>2199.7</ele>
        <time>2012-07-08T12:02:37Z</time>
      </trkpt>
      <trkpt lat="44.13105" lon="7.04327">
        <ele>2259</ele>
        <time>2012-07-08T12:03:00Z</time>
      </trkpt>
      <trkpt lat="44.13098" lon="7.04333">
        <ele>2259</ele>
        <time>2012-07-08T12:03:02Z</time>
      </trkpt>
      <trkpt lat="44.13091" lon="7.0434">
        <ele>2259</ele>
        <time>2012-07-08T12:03:06Z</time>
      </trkpt>
      <trkpt lat="44.13085" lon="7.04344">
        <ele>2258</ele>
        <time>2012-07-08T12:03:09Z</time>
      </trkpt>
      <trkpt lat="44.13085" lon="7.04344">
        <ele>2194</ele>
        <time>2012-07-08T12:03:20Z</time>
      </trkpt>
      <trkpt lat="44.13085" lon="7.04344">
        <ele>2194</ele>
        <time>2012-07-08T12:03:21Z</time>
      </trkpt>
      <trkpt lat="44.13058" lon="7.04359">
        <ele>2257</ele>
        <time>2012-07-08T12:03:26Z</time>
      </trkpt>
      <trkpt lat="44.13015" lon="7.04348">
        <ele>2255</ele>
        <time>2012-07-08T12:03:56Z</time>
      </trkpt>
      <trkpt lat="44.13009" lon="7.04346">
        <ele>2254</ele>
        <time>2012-07-08T12:03:58Z</time>
      </trkpt>
      <trkpt lat="44.12963" lon="7.04312">
        <ele>2252</ele>
        <time>2012-07-08T12:04:25Z</time>
      </trkpt>
      <trkpt lat="44.12957" lon="7.0431">
        <ele>2252</ele>
        <time>2012-07-08T12:04:27Z</time>
      </trkpt>
      <trkpt lat="44.12943" lon="7.04303">
        <ele>2251</ele>
        <time>2012-07-08T12:04:34Z</time>
      </trkpt>
      <trkpt lat="44.12927" lon="7.04286">
        <ele>2249</ele>
        <time>2012-07-08T12:05:00Z</time>
      </trkpt>
      <trkpt lat="44.12927" lon="7.04286">
        <ele>2182.7</ele>
        <time>2012-07-08T12:05:12Z</time>
      </trkpt>
      <trkpt lat="44.12927" lon="7.04286">
        <ele>2182.7</ele>
        <time>2012-07-08T12:05:31Z</time>
      </trkpt>
      <trkpt lat="44.12887" lon="7.04292">
        <ele>2245</ele>
        <time>2012-07-08T12:05:32Z</time>
      </trkpt>
      <trkpt lat="44.12756" lon="7.04286">
        <ele>2207</ele>
        <time>2012-07-08T12:06:00Z</time>
      </trkpt>
      <trkpt lat="44.12651" lon="7.04234">
        <ele>2187</ele>
        <time>2012-07-08T12:06:29Z</time>
      </trkpt>
      <trkpt lat="44.12639" lon="7.04239">
        <ele>2187</ele>
        <time>2012-07-08T12:06:33Z</time>
      </trkpt>
      <trkpt lat="44.12615" lon="7.04335">
        <ele>2175</ele>
        <time>2012-07-08T12:06:56Z</time>
      </trkpt>
      <trkpt lat="44.12595" lon="7.04376">
        <ele>2176</ele>
        <time>2012-07-08T12:07:04Z</time>
      </trkpt>
      <trkpt lat="44.12581" lon="7.04413">
        <ele>2175</ele>
        <time>2012-07-08T12:07:13Z</time>
      </trkpt>
      <trkpt lat="44.12572" lon="7.04436">
        <ele>2175</ele>
        <time>2012-07-08T12:07:17Z</time>
      </trkpt>
      <trkpt lat="44.12562" lon="7.04466">
        <ele>2172</ele>
        <time>2012-07-08T12:07:21Z</time>
      </trkpt>
      <trkpt lat="44.12556" lon="7.04503">
        <ele>2171</ele>
        <time>2012-07-08T12:07:25Z</time>
      </trkpt>
      <trkpt lat="44.12549" lon="7.04539">
        <ele>2163</ele>
        <time>2012-07-08T12:07:29Z</time>
      </trkpt>
      <trkpt lat="44.12545" lon="7.04565">
        <ele>2159</ele>
        <time>2012-07-08T12:07:32Z</time>
      </trkpt>
      <trkpt lat="44.12545" lon="7.04565">
        <ele>2082.9</ele>
        <time>2012-07-08T12:07:44Z</time>
      </trkpt>
      <trkpt lat="44.12545" lon="7.04565">
        <ele>2082.9</ele>
        <time>2012-07-08T12:08:02Z</time>
      </trkpt>
      <trkpt lat="44.12531" lon="7.04616">
        <ele>2151</ele>
        <time>2012-07-08T12:08:07Z</time>
      </trkpt>
      <trkpt lat="44.12514" lon="7.04642">
        <ele>2133</ele>
        <time>2012-07-08T12:08:12Z</time>
      </trkpt>
      <trkpt lat="44.125" lon="7.04659">
        <ele>2128</ele>
        <time>2012-07-08T12:08:15Z</time>
      </trkpt>
      <trkpt lat="44.1247" lon="7.04681">
        <ele>2123</ele>
        <time>2012-07-08T12:08:20Z</time>
      </trkpt>
      <trkpt lat="44.12444" lon="7.04696">
        <ele>2121</ele>
        <time>2012-07-08T12:08:24Z</time>
      </trkpt>
      <trkpt lat="44.12424" lon="7.04722">
        <ele>2121</ele>
        <time>2012-07-08T12:08:28Z</time>
      </trkpt>
      <trkpt lat="44.12409" lon="7.04734">
        <ele>2119</ele>
        <time>2012-07-08T12:08:31Z</time>
      </trkpt>
      <trkpt lat="44.12395" lon="7.04745">
        <ele>2117</ele>
        <time>2012-07-08T12:08:35Z</time>
      </trkpt>
      <trkpt lat="44.12377" lon="7.04758">
        <ele>2117</ele>
        <time>2012-07-08T12:08:39Z</time>
      </trkpt>
      <trkpt lat="44.12357" lon="7.04773">
        <ele>2115</ele>
        <time>2012-07-08T12:08:43Z</time>
      </trkpt>
      <trkpt lat="44.12336" lon="7.04784">
        <ele>2113</ele>
        <time>2012-07-08T12:08:47Z</time>
      </trkpt>
      <trkpt lat="44.12305" lon="7.04794">
        <ele>2111</ele>
        <time>2012-07-08T12:08:52Z</time>
      </trkpt>
      <trkpt lat="44.12277" lon="7.04801">
        <ele>2106</ele>
        <time>2012-07-08T12:08:56Z</time>
      </trkpt>
      <trkpt lat="44.12259" lon="7.04799">
        <ele>2104</ele>
        <time>2012-07-08T12:08:59Z</time>
      </trkpt>
      <trkpt lat="44.12236" lon="7.04792">
        <ele>2101</ele>
        <time>2012-07-08T12:09:03Z</time>
      </trkpt>
      <trkpt lat="44.12221" lon="7.04784">
        <ele>2100</ele>
        <time>2012-07-08T12:09:07Z</time>
      </trkpt>
      <trkpt lat="44.12196" lon="7.04777">
        <ele>2097</ele>
        <time>2012-07-08T12:09:12Z</time>
      </trkpt>
      <trkpt lat="44.12177" lon="7.04767">
        <ele>2094</ele>
        <time>2012-07-08T12:09:15Z</time>
      </trkpt>
      <trkpt lat="44.12156" lon="7.04756">
        <ele>2091</ele>
        <time>2012-07-08T12:09:19Z</time>
      </trkpt>
      <trkpt lat="44.12138" lon="7.04749">
        <ele>2087</ele>
        <time>2012-07-08T12:09:23Z</time>
      </trkpt>
      <trkpt lat="44.12126" lon="7.04741">
        <ele>2084</ele>
        <time>2012-07-08T12:09:27Z</time>
      </trkpt>
      <trkpt lat="44.12105" lon="7.04743">
        <ele>2081</ele>
        <time>2012-07-08T12:09:31Z</time>
      </trkpt>
      <trkpt lat="44.12077" lon="7.04739">
        <ele>2078</ele>
        <time>2012-07-08T12:09:36Z</time>
      </trkpt>
      <trkpt lat="44.12057" lon="7.04745">
        <ele>2076</ele>
        <time>2012-07-08T12:09:40Z</time>
      </trkpt>
      <trkpt lat="44.12049" lon="7.04749">
        <ele>2075</ele>
        <time>2012-07-08T12:09:45Z</time>
      </trkpt>
      <trkpt lat="44.12049" lon="7.04749">
        <ele>1966.2</ele>
        <time>2012-07-08T12:09:56Z</time>
      </trkpt>
      <trkpt lat="44.12049" lon="7.04749">
        <ele>1966.2</ele>
        <time>2012-07-08T12:10:02Z</time>
      </trkpt>
      <trkpt lat="44.12005" lon="7.04784">
        <ele>2063</ele>
        <time>2012-07-08T12:10:14Z</time>
      </trkpt>
      <trkpt lat="44.11988" lon="7.04801">
        <ele>2050</ele>
        <time>2012-07-08T12:10:21Z</time>
      </trkpt>
      <trkpt lat="44.11984" lon="7.04807">
        <ele>2049</ele>
        <time>2012-07-08T12:10:23Z</time>
      </trkpt>
      <trkpt lat="44.1197" lon="7.04829">
        <ele>2046</ele>
        <time>2012-07-08T12:10:30Z</time>
      </trkpt>
      <trkpt lat="44.11966" lon="7.04837">
        <ele>2046</ele>
        <time>2012-07-08T12:10:32Z</time>
      </trkpt>
      <trkpt lat="44.11951" lon="7.04859">
        <ele>2042</ele>
        <time>2012-07-08T12:10:41Z</time>
      </trkpt>
      <trkpt lat="44.11939" lon="7.04878">
        <ele>2035</ele>
        <time>2012-07-08T12:10:45Z</time>
      </trkpt>
      <trkpt lat="44.11939" lon="7.04878">
        <ele>1938.7</ele>
        <time>2012-07-08T12:10:56Z</time>
      </trkpt>
      <trkpt lat="44.11939" lon="7.04878">
        <ele>1938.7</ele>
        <time>2012-07-08T12:11:00Z</time>
      </trkpt>
      <trkpt lat="44.11908" lon="7.04917">
        <ele>2029</ele>
        <time>2012-07-08T12:11:02Z</time>
      </trkpt>
      <trkpt lat="44.11885" lon="7.04921">
        <ele>2016</ele>
        <time>2012-07-08T12:11:06Z</time>
      </trkpt>
      <trkpt lat="44.11867" lon="7.04927">
        <ele>2009</ele>
        <time>2012-07-08T12:11:09Z</time>
      </trkpt>
      <trkpt lat="44.11849" lon="7.04936">
        <ele>2004</ele>
        <time>2012-07-08T12:11:12Z</time>
      </trkpt>
      <trkpt lat="44.11811" lon="7.04962">
        <ele>1997</ele>
        <time>2012-07-08T12:11:18Z</time>
      </trkpt>
      <trkpt lat="44.1179" lon="7.04983">
        <ele>1995</ele>
        <time>2012-07-08T12:11:22Z</time>
      </trkpt>
      <trkpt lat="44.1178" lon="7.05005">
        <ele>1992</ele>
        <time>2012-07-08T12:11:25Z</time>
      </trkpt>
      <trkpt lat="44.11763" lon="7.05026">
        <ele>1988</ele>
        <time>2012-07-08T12:11:29Z</time>
      </trkpt>
      <trkpt lat="44.11744" lon="7.05046">
        <ele>1983</ele>
        <time>2012-07-08T12:11:33Z</time>
      </trkpt>
      <trkpt lat="44.11729" lon="7.05073">
        <ele>1980</ele>
        <time>2012-07-08T12:11:37Z</time>
      </trkpt>
      <trkpt lat="44.11716" lon="7.05103">
        <ele>1977</ele>
        <time>2012-07-08T12:11:42Z</time>
      </trkpt>
      <trkpt lat="44.11707" lon="7.05127">
        <ele>1975</ele>
        <time>2012-07-08T12:11:46Z</time>
      </trkpt>
      <trkpt lat="44.11694" lon="7.05153">
        <ele>1975</ele>
        <time>2012-07-08T12:11:52Z</time>
      </trkpt>
      <trkpt lat="44.1168" lon="7.05172">
        <ele>1975</ele>
        <time>2012-07-08T12:11:57Z</time>
      </trkpt>
      <trkpt lat="44.11666" lon="7.05187">
        <ele>1974</ele>
        <time>2012-07-08T12:12:01Z</time>
      </trkpt>
      <trkpt lat="44.11633" lon="7.05219">
        <ele>1973</ele>
        <time>2012-07-08T12:12:13Z</time>
      </trkpt>
      <trkpt lat="44.11617" lon="7.05234">
        <ele>1970</ele>
        <time>2012-07-08T12:12:17Z</time>
      </trkpt>
      <trkpt lat="44.11603" lon="7.05245">
        <ele>1970</ele>
        <time>2012-07-08T12:12:22Z</time>
      </trkpt>
      <trkpt lat="44.11584" lon="7.05269">
        <ele>1964</ele>
        <time>2012-07-08T12:12:26Z</time>
      </trkpt>
      <trkpt lat="44.11571" lon="7.05288">
        <ele>1960</ele>
        <time>2012-07-08T12:12:29Z</time>
      </trkpt>
      <trkpt lat="44.11563" lon="7.05303">
        <ele>1959</ele>
        <time>2012-07-08T12:12:33Z</time>
      </trkpt>
      <trkpt lat="44.11555" lon="7.05322">
        <ele>1956</ele>
        <time>2012-07-08T12:12:37Z</time>
      </trkpt>
      <trkpt lat="44.11537" lon="7.05337">
        <ele>1953</ele>
        <time>2012-07-08T12:12:44Z</time>
      </trkpt>
      <trkpt lat="44.11521" lon="7.05348">
        <ele>1949</ele>
        <time>2012-07-08T12:12:49Z</time>
      </trkpt>
      <trkpt lat="44.11506" lon="7.05363">
        <ele>1941</ele>
        <time>2012-07-08T12:12:53Z</time>
      </trkpt>
      <trkpt lat="44.11499" lon="7.05367">
        <ele>1941</ele>
        <time>2012-07-08T12:12:56Z</time>
      </trkpt>
      <trkpt lat="44.11499" lon="7.05367">
        <ele>1855.3</ele>
        <time>2012-07-08T12:13:07Z</time>
      </trkpt>
      <trkpt lat="44.11499" lon="7.05367">
        <ele>1855.3</ele>
        <time>2012-07-08T12:13:08Z</time>
      </trkpt>
      <trkpt lat="44.11499" lon="7.05367">
        <ele>1855.3</ele>
        <time>2012-07-08T12:20:38Z</time>
      </trkpt>
      <trkpt lat="44.10928" lon="7.0682">
        <ele>1704</ele>
        <time>2012-07-08T12:20:42Z</time>
      </trkpt>
      <trkpt lat="44.10936" lon="7.06859">
        <ele>1700</ele>
        <time>2012-07-08T12:20:47Z</time>
      </trkpt>
      <trkpt lat="44.10943" lon="7.06902">
        <ele>1699</ele>
        <time>2012-07-08T12:20:51Z</time>
      </trkpt>
      <trkpt lat="44.10949" lon="7.06927">
        <ele>1698</ele>
        <time>2012-07-08T12:20:54Z</time>
      </trkpt>
      <trkpt lat="44.10958" lon="7.06968">
        <ele>1696</ele>
        <time>2012-07-08T12:20:59Z</time>
      </trkpt>
      <trkpt lat="44.1096" lon="7.06996">
        <ele>1695</ele>
        <time>2012-07-08T12:21:03Z</time>
      </trkpt>
      <trkpt lat="44.10961" lon="7.07024">
        <ele>1692</ele>
        <time>2012-07-08T12:21:07Z</time>
      </trkpt>
      <trkpt lat="44.10967" lon="7.0706">
        <ele>1689</ele>
        <time>2012-07-08T12:21:14Z</time>
      </trkpt>
      <trkpt lat="44.10972" lon="7.07078">
        <ele>1686</ele>
        <time>2012-07-08T12:21:19Z</time>
      </trkpt>
      <trkpt lat="44.10965" lon="7.07084">
        <ele>1680</ele>
        <time>2012-07-08T12:21:23Z</time>
      </trkpt>
      <trkpt lat="44.10954" lon="7.07097">
        <ele>1667</ele>
        <time>2012-07-08T12:21:27Z</time>
      </trkpt>
      <trkpt lat="44.10943" lon="7.07116">
        <ele>1661</ele>
        <time>2012-07-08T12:21:31Z</time>
      </trkpt>
      <trkpt lat="44.10928" lon="7.07133">
        <ele>1658</ele>
        <time>2012-07-08T12:21:35Z</time>
      </trkpt>
      <trkpt lat="44.10913" lon="7.07155">
        <ele>1655</ele>
        <time>2012-07-08T12:21:39Z</time>
      </trkpt>
      <trkpt lat="44.10898" lon="7.07168">
        <ele>1652</ele>
        <time>2012-07-08T12:21:42Z</time>
      </trkpt>
      <trkpt lat="44.10871" lon="7.07196">
        <ele>1650</ele>
        <time>2012-07-08T12:21:47Z</time>
      </trkpt>
      <trkpt lat="44.1085" lon="7.07221">
        <ele>1648</ele>
        <time>2012-07-08T12:21:51Z</time>
      </trkpt>
      <trkpt lat="44.10838" lon="7.0726">
        <ele>1646</ele>
        <time>2012-07-08T12:21:55Z</time>
      </trkpt>
      <trkpt lat="44.10832" lon="7.07299">
        <ele>1645</ele>
        <time>2012-07-08T12:21:59Z</time>
      </trkpt>
      <trkpt lat="44.10829" lon="7.07307">
        <ele>1645</ele>
        <time>2012-07-08T12:22:00Z</time>
      </trkpt>
      <trkpt lat="44.10822" lon="7.07363">
        <ele>1641</ele>
        <time>2012-07-08T12:22:06Z</time>
      </trkpt>
      <trkpt lat="44.10811" lon="7.07391">
        <ele>1638</ele>
        <time>2012-07-08T12:22:11Z</time>
      </trkpt>
      <trkpt lat="44.10799" lon="7.0741">
        <ele>1633</ele>
        <time>2012-07-08T12:22:14Z</time>
      </trkpt>
      <trkpt lat="44.10791" lon="7.07438">
        <ele>1629</ele>
        <time>2012-07-08T12:22:17Z</time>
      </trkpt>
      <trkpt lat="44.10774" lon="7.07483">
        <ele>1623</ele>
        <time>2012-07-08T12:22:23Z</time>
      </trkpt>
      <trkpt lat="44.10774" lon="7.07483">
        <ele>1500.7</ele>
        <time>2012-07-08T12:22:35Z</time>
      </trkpt>
      <trkpt lat="44.10774" lon="7.07483">
        <ele>1500.7</ele>
        <time>2012-07-08T12:23:01Z</time>
      </trkpt>
      <trkpt lat="44.10736" lon="7.07528">
        <ele>1594</ele>
        <time>2012-07-08T12:23:05Z</time>
      </trkpt>
      <trkpt lat="44.10722" lon="7.07558">
        <ele>1583</ele>
        <time>2012-07-08T12:23:09Z</time>
      </trkpt>
      <trkpt lat="44.10719" lon="7.07569">
        <ele>1582</ele>
        <time>2012-07-08T12:23:10Z</time>
      </trkpt>
      <trkpt lat="44.10703" lon="7.07638">
        <ele>1574</ele>
        <time>2012-07-08T12:23:17Z</time>
      </trkpt>
      <trkpt lat="44.10691" lon="7.0767">
        <ele>1570</ele>
        <time>2012-07-08T12:23:21Z</time>
      </trkpt>
      <trkpt lat="44.10679" lon="7.07693">
        <ele>1569</ele>
        <time>2012-07-08T12:23:24Z</time>
      </trkpt>
      <trkpt lat="44.10695" lon="7.07736">
        <ele>1571</ele>
        <time>2012-07-08T12:23:29Z</time>
      </trkpt>
      <trkpt lat="44.10707" lon="7.07771">
        <ele>1569</ele>
        <time>2012-07-08T12:23:33Z</time>
      </trkpt>
      <trkpt lat="44.10702" lon="7.07805">
        <ele>1566</ele>
        <time>2012-07-08T12:23:37Z</time>
      </trkpt>
      <trkpt lat="44.10693" lon="7.07835">
        <ele>1559</ele>
        <time>2012-07-08T12:23:41Z</time>
      </trkpt>
      <trkpt lat="44.10685" lon="7.07859">
        <ele>1555</ele>
        <time>2012-07-08T12:23:45Z</time>
      </trkpt>
      <trkpt lat="44.10674" lon="7.07887">
        <ele>1552</ele>
        <time>2012-07-08T12:23:49Z</time>
      </trkpt>
      <trkpt lat="44.10664" lon="7.07923">
        <ele>1551</ele>
        <time>2012-07-08T12:23:53Z</time>
      </trkpt>
      <trkpt lat="44.10652" lon="7.07959">
        <ele>1550</ele>
        <time>2012-07-08T12:23:57Z</time>
      </trkpt>
      <trkpt lat="44.10648" lon="7.07977">
        <ele>1550</ele>
        <time>2012-07-08T12:23:59Z</time>
      </trkpt>
      <trkpt lat="44.10648" lon="7.07977">
        <ele>1452.8</ele>
        <time>2012-07-08T12:24:10Z</time>
      </trkpt>
      <trkpt lat="44.10648" lon="7.07977">
        <ele>1452.8</ele>
        <time>2012-07-08T12:24:29Z</time>
      </trkpt>
      <trkpt lat="44.10619" lon="7.08037">
        <ele>1533</ele>
        <time>2012-07-08T12:24:36Z</time>
      </trkpt>
      <trkpt lat="44.10604" lon="7.08062">
        <ele>1526</ele>
        <time>2012-07-08T12:24:40Z</time>
      </trkpt>
      <trkpt lat="44.1059" lon="7.08086">
        <ele>1523</ele>
        <time>2012-07-08T12:24:44Z</time>
      </trkpt>
      <trkpt lat="44.10576" lon="7.08114">
        <ele>1522</ele>
        <time>2012-07-08T12:24:48Z</time>
      </trkpt>
      <trkpt lat="44.10569" lon="7.08146">
        <ele>1520</ele>
        <time>2012-07-08T12:24:52Z</time>
      </trkpt>
      <trkpt lat="44.10561" lon="7.08172">
        <ele>1519</ele>
        <time>2012-07-08T12:24:56Z</time>
      </trkpt>
      <trkpt lat="44.10557" lon="7.08191">
        <ele>1519</ele>
        <time>2012-07-08T12:24:59Z</time>
      </trkpt>
      <trkpt lat="44.10551" lon="7.08211">
        <ele>1518</ele>
        <time>2012-07-08T12:25:04Z</time>
      </trkpt>
      <trkpt lat="44.10544" lon="7.08232">
        <ele>1517</ele>
        <time>2012-07-08T12:25:08Z</time>
      </trkpt>
      <trkpt lat="44.10539" lon="7.08251">
        <ele>1515</ele>
        <time>2012-07-08T12:25:12Z</time>
      </trkpt>
      <trkpt lat="44.10539" lon="7.08251">
        <ele>1430.9</ele>
        <time>2012-07-08T12:25:23Z</time>
      </trkpt>
      <trkpt lat="44.10539" lon="7.08251">
        <ele>1430.9</ele>
        <time>2012-07-08T12:25:27Z</time>
      </trkpt>
      <trkpt lat="44.10539" lon="7.08251">
        <ele>1430.9</ele>
        <time>2012-07-08T12:25:38Z</time>
      </trkpt>
      <trkpt lat="44.10539" lon="7.08251">
        <ele>1430.9</ele>
        <time>2012-07-08T12:25:43Z</time>
      </trkpt>
      <trkpt lat="44.10539" lon="7.08251">
        <ele>1430.9</ele>
        <time>2012-07-08T12:25:54Z</time>
      </trkpt>
      <trkpt lat="44.10539" lon="7.08251">
        <ele>1430.9</ele>
        <time>2012-07-08T12:25:56Z</time>
      </trkpt>
      <trkpt lat="44.10539" lon="7.08251">
        <ele>1430.9</ele>
        <time>2012-07-08T12:26:07Z</time>
      </trkpt>
      <trkpt lat="44.10539" lon="7.08251">
        <ele>1430.9</ele>
        <time>2012-07-08T12:26:14Z</time>
      </trkpt>
      <trkpt lat="44.1059" lon="7.082">
        <ele>1496</ele>
        <time>2012-07-08T12:26:18Z</time>
      </trkpt>
      <trkpt lat="44.10599" lon="7.08191">
        <ele>1495</ele>
        <time>2012-07-08T12:26:24Z</time>
      </trkpt>
      <trkpt lat="44.10606" lon="7.08183">
        <ele>1494</ele>
        <time>2012-07-08T12:26:29Z</time>
      </trkpt>
      <trkpt lat="44.10614" lon="7.08174">
        <ele>1493</ele>
        <time>2012-07-08T12:26:34Z</time>
      </trkpt>
      <trkpt lat="44.10621" lon="7.08168">
        <ele>1492</ele>
        <time>2012-07-08T12:26:38Z</time>
      </trkpt>
      <trkpt lat="44.10627" lon="7.08161">
        <ele>1491</ele>
        <time>2012-07-08T12:26:41Z</time>
      </trkpt>
      <trkpt lat="44.10632" lon="7.08153">
        <ele>1491</ele>
        <time>2012-07-08T12:26:45Z</time>
      </trkpt>
      <trkpt lat="44.1064" lon="7.08144">
        <ele>1490</ele>
        <time>2012-07-08T12:26:50Z</time>
      </trkpt>
      <trkpt lat="44.10647" lon="7.08133">
        <ele>1489</ele>
        <time>2012-07-08T12:26:55Z</time>
      </trkpt>
      <trkpt lat="44.10654" lon="7.08125">
        <ele>1488</ele>
        <time>2012-07-08T12:26:59Z</time>
      </trkpt>
      <trkpt lat="44.1066" lon="7.08112">
        <ele>1487</ele>
        <time>2012-07-08T12:27:04Z</time>
      </trkpt>
      <trkpt lat="44.10664" lon="7.08103">
        <ele>1487</ele>
        <time>2012-07-08T12:27:08Z</time>
      </trkpt>
      <trkpt lat="44.10669" lon="7.08093">
        <ele>1486</ele>
        <time>2012-07-08T12:27:12Z</time>
      </trkpt>
      <trkpt lat="44.10677" lon="7.08084">
        <ele>1486</ele>
        <time>2012-07-08T12:27:16Z</time>
      </trkpt>
      <trkpt lat="44.10686" lon="7.08077">
        <ele>1485</ele>
        <time>2012-07-08T12:27:20Z</time>
      </trkpt>
      <trkpt lat="44.10693" lon="7.08065">
        <ele>1485</ele>
        <time>2012-07-08T12:27:25Z</time>
      </trkpt>
      <trkpt lat="44.107" lon="7.08054">
        <ele>1485</ele>
        <time>2012-07-08T12:27:30Z</time>
      </trkpt>
      <trkpt lat="44.10706" lon="7.08045">
        <ele>1485</ele>
        <time>2012-07-08T12:27:35Z</time>
      </trkpt>
      <trkpt lat="44.10716" lon="7.0803">
        <ele>1486</ele>
        <time>2012-07-08T12:27:41Z</time>
      </trkpt>
      <trkpt lat="44.1072" lon="7.08022">
        <ele>1486</ele>
        <time>2012-07-08T12:27:44Z</time>
      </trkpt>
      <trkpt lat="44.10724" lon="7.08011">
        <ele>1487</ele>
        <time>2012-07-08T12:27:48Z</time>
      </trkpt>
      <trkpt lat="44.10732" lon="7.08002">
        <ele>1488</ele>
        <time>2012-07-08T12:27:53Z</time>
      </trkpt>
      <trkpt lat="44.10737" lon="7.07994">
        <ele>1488</ele>
        <time>2012-07-08T12:27:56Z</time>
      </trkpt>
      <trkpt lat="44.10747" lon="7.07981">
        <ele>1489</ele>
        <time>2012-07-08T12:28:01Z</time>
      </trkpt>
      <trkpt lat="44.10753" lon="7.07974">
        <ele>1489</ele>
        <time>2012-07-08T12:28:04Z</time>
      </trkpt>
      <trkpt lat="44.10761" lon="7.07966">
        <ele>1489</ele>
        <time>2012-07-08T12:28:08Z</time>
      </trkpt>
      <trkpt lat="44.10769" lon="7.07951">
        <ele>1490</ele>
        <time>2012-07-08T12:28:13Z</time>
      </trkpt>
      <trkpt lat="44.10774" lon="7.0794">
        <ele>1490</ele>
        <time>2012-07-08T12:28:16Z</time>
      </trkpt>
      <trkpt lat="44.10779" lon="7.07919">
        <ele>1491</ele>
        <time>2012-07-08T12:28:22Z</time>
      </trkpt>
      <trkpt lat="44.1078" lon="7.07904">
        <ele>1491</ele>
        <time>2012-07-08T12:28:25Z</time>
      </trkpt>
      <trkpt lat="44.10783" lon="7.07878">
        <ele>1491</ele>
        <time>2012-07-08T12:28:30Z</time>
      </trkpt>
      <trkpt lat="44.10785" lon="7.07863">
        <ele>1492</ele>
        <time>2012-07-08T12:28:32Z</time>
      </trkpt>
      <trkpt lat="44.10794" lon="7.07841">
        <ele>1493</ele>
        <time>2012-07-08T12:28:36Z</time>
      </trkpt>
      <trkpt lat="44.10802" lon="7.07814">
        <ele>1492</ele>
        <time>2012-07-08T12:28:42Z</time>
      </trkpt>
      <trkpt lat="44.10813" lon="7.07784">
        <ele>1489</ele>
        <time>2012-07-08T12:28:48Z</time>
      </trkpt>
      <trkpt lat="44.10829" lon="7.07741">
        <ele>1488</ele>
        <time>2012-07-08T12:28:57Z</time>
      </trkpt>
      <trkpt lat="44.10838" lon="7.07726">
        <ele>1488</ele>
        <time>2012-07-08T12:29:01Z</time>
      </trkpt>
      <trkpt lat="44.10841" lon="7.07717">
        <ele>1488</ele>
        <time>2012-07-08T12:29:03Z</time>
      </trkpt>
      <trkpt lat="44.10851" lon="7.07698">
        <ele>1489</ele>
        <time>2012-07-08T12:29:08Z</time>
      </trkpt>
      <trkpt lat="44.10865" lon="7.07674">
        <ele>1490</ele>
        <time>2012-07-08T12:29:16Z</time>
      </trkpt>
      <trkpt lat="44.10878" lon="7.07657">
        <ele>1491</ele>
        <time>2012-07-08T12:29:22Z</time>
      </trkpt>
      <trkpt lat="44.10887" lon="7.07642">
        <ele>1491</ele>
        <time>2012-07-08T12:29:26Z</time>
      </trkpt>
      <trkpt lat="44.10896" lon="7.07629">
        <ele>1492</ele>
        <time>2012-07-08T12:29:30Z</time>
      </trkpt>
      <trkpt lat="44.10907" lon="7.07612">
        <ele>1492</ele>
        <time>2012-07-08T12:29:34Z</time>
      </trkpt>
      <trkpt lat="44.10913" lon="7.07595">
        <ele>1493</ele>
        <time>2012-07-08T12:29:38Z</time>
      </trkpt>
      <trkpt lat="44.10913" lon="7.07595">
        <ele>1405</ele>
        <time>2012-07-08T12:29:49Z</time>
      </trkpt>
      <trkpt lat="44.10913" lon="7.07595">
        <ele>1405</ele>
        <time>2012-07-08T12:29:50Z</time>
      </trkpt>
      <trkpt lat="44.10937" lon="7.0755">
        <ele>1494</ele>
        <time>2012-07-08T12:29:53Z</time>
      </trkpt>
      <trkpt lat="44.10942" lon="7.07541">
        <ele>1495</ele>
        <time>2012-07-08T12:29:56Z</time>
      </trkpt>
      <trkpt lat="44.10961" lon="7.07511">
        <ele>1496</ele>
        <time>2012-07-08T12:30:06Z</time>
      </trkpt>
      <trkpt lat="44.10973" lon="7.07481">
        <ele>1496</ele>
        <time>2012-07-08T12:30:15Z</time>
      </trkpt>
      <trkpt lat="44.10986" lon="7.07459">
        <ele>1497</ele>
        <time>2012-07-08T12:30:22Z</time>
      </trkpt>
      <trkpt lat="44.10993" lon="7.07453">
        <ele>1498</ele>
        <time>2012-07-08T12:30:25Z</time>
      </trkpt>
      <trkpt lat="44.11001" lon="7.07444">
        <ele>1498</ele>
        <time>2012-07-08T12:30:29Z</time>
      </trkpt>
      <trkpt lat="44.11011" lon="7.0744">
        <ele>1500</ele>
        <time>2012-07-08T12:30:34Z</time>
      </trkpt>
      <trkpt lat="44.11019" lon="7.07436">
        <ele>1501</ele>
        <time>2012-07-08T12:30:38Z</time>
      </trkpt>
      <trkpt lat="44.11027" lon="7.07434">
        <ele>1502</ele>
        <time>2012-07-08T12:30:41Z</time>
      </trkpt>
      <trkpt lat="44.11033" lon="7.07434">
        <ele>1502</ele>
        <time>2012-07-08T12:30:44Z</time>
      </trkpt>
      <trkpt lat="44.11045" lon="7.07432">
        <ele>1504</ele>
        <time>2012-07-08T12:30:50Z</time>
      </trkpt>
      <trkpt lat="44.11058" lon="7.07429">
        <ele>1505</ele>
        <time>2012-07-08T12:30:57Z</time>
      </trkpt>
      <trkpt lat="44.11058" lon="7.07429">
        <ele>1442.4</ele>
        <time>2012-07-08T12:31:08Z</time>
      </trkpt>
      <trkpt lat="44.11058" lon="7.07429">
        <ele>1442.4</ele>
        <time>2012-07-08T12:31:11Z</time>
      </trkpt>
      <trkpt lat="44.11092" lon="7.07425">
        <ele>1508</ele>
        <time>2012-07-08T12:31:14Z</time>
      </trkpt>
      <trkpt lat="44.11099" lon="7.07425">
        <ele>1509</ele>
        <time>2012-07-08T12:31:17Z</time>
      </trkpt>
      <trkpt lat="44.11105" lon="7.07425">
        <ele>1509</ele>
        <time>2012-07-08T12:31:20Z</time>
      </trkpt>
      <trkpt lat="44.11119" lon="7.07423">
        <ele>1510</ele>
        <time>2012-07-08T12:31:26Z</time>
      </trkpt>
      <trkpt lat="44.11126" lon="7.07423">
        <ele>1510</ele>
        <time>2012-07-08T12:31:29Z</time>
      </trkpt>
      <trkpt lat="44.11133" lon="7.07425">
        <ele>1511</ele>
        <time>2012-07-08T12:31:32Z</time>
      </trkpt>
      <trkpt lat="44.11149" lon="7.07429">
        <ele>1512</ele>
        <time>2012-07-08T12:31:38Z</time>
      </trkpt>
      <trkpt lat="44.11162" lon="7.07429">
        <ele>1512</ele>
        <time>2012-07-08T12:31:42Z</time>
      </trkpt>
      <trkpt lat="44.1117" lon="7.07423">
        <ele>1512</ele>
        <time>2012-07-08T12:31:46Z</time>
      </trkpt>
      <trkpt lat="44.11178" lon="7.07417">
        <ele>1513</ele>
        <time>2012-07-08T12:31:51Z</time>
      </trkpt>
      <trkpt lat="44.11196" lon="7.07402">
        <ele>1514</ele>
        <time>2012-07-08T12:32:00Z</time>
      </trkpt>
      <trkpt lat="44.11209" lon="7.07387">
        <ele>1514</ele>
        <time>2012-07-08T12:32:05Z</time>
      </trkpt>
      <trkpt lat="44.11222" lon="7.07369">
        <ele>1514</ele>
        <time>2012-07-08T12:32:09Z</time>
      </trkpt>
      <trkpt lat="44.11232" lon="7.07354">
        <ele>1513</ele>
        <time>2012-07-08T12:32:13Z</time>
      </trkpt>
      <trkpt lat="44.11239" lon="7.07337">
        <ele>1512</ele>
        <time>2012-07-08T12:32:17Z</time>
      </trkpt>
      <trkpt lat="44.11243" lon="7.07329">
        <ele>1512</ele>
        <time>2012-07-08T12:32:19Z</time>
      </trkpt>
      <trkpt lat="44.11252" lon="7.07303">
        <ele>1510</ele>
        <time>2012-07-08T12:32:25Z</time>
      </trkpt>
      <trkpt lat="44.11262" lon="7.07286">
        <ele>1509</ele>
        <time>2012-07-08T12:32:29Z</time>
      </trkpt>
      <trkpt lat="44.11268" lon="7.07279">
        <ele>1508</ele>
        <time>2012-07-08T12:32:31Z</time>
      </trkpt>
      <trkpt lat="44.11289" lon="7.07254">
        <ele>1505</ele>
        <time>2012-07-08T12:32:37Z</time>
      </trkpt>
      <trkpt lat="44.11308" lon="7.07249">
        <ele>1503</ele>
        <time>2012-07-08T12:32:41Z</time>
      </trkpt>
      <trkpt lat="44.1134" lon="7.0726">
        <ele>1507</ele>
        <time>2012-07-08T12:32:46Z</time>
      </trkpt>
      <trkpt lat="44.11381" lon="7.07273">
        <ele>1512</ele>
        <time>2012-07-08T12:32:54Z</time>
      </trkpt>
      <trkpt lat="44.11392" lon="7.07273">
        <ele>1513</ele>
        <time>2012-07-08T12:32:56Z</time>
      </trkpt>
      <trkpt lat="44.11412" lon="7.07245">
        <ele>1513</ele>
        <time>2012-07-08T12:33:02Z</time>
      </trkpt>
      <trkpt lat="44.11422" lon="7.07228">
        <ele>1514</ele>
        <time>2012-07-08T12:33:06Z</time>
      </trkpt>
      <trkpt lat="44.1143" lon="7.07208">
        <ele>1513</ele>
        <time>2012-07-08T12:33:10Z</time>
      </trkpt>
      <trkpt lat="44.11425" lon="7.07157">
        <ele>1511</ele>
        <time>2012-07-08T12:33:21Z</time>
      </trkpt>
      <trkpt lat="44.11422" lon="7.07131">
        <ele>1509</ele>
        <time>2012-07-08T12:33:25Z</time>
      </trkpt>
      <trkpt lat="44.11429" lon="7.0709">
        <ele>1506</ele>
        <time>2012-07-08T12:33:33Z</time>
      </trkpt>
      <trkpt lat="44.11436" lon="7.07082">
        <ele>1504</ele>
        <time>2012-07-08T12:33:36Z</time>
      </trkpt>
      <trkpt lat="44.11444" lon="7.0708">
        <ele>1503</ele>
        <time>2012-07-08T12:33:39Z</time>
      </trkpt>
      <trkpt lat="44.1147" lon="7.07063">
        <ele>1500</ele>
        <time>2012-07-08T12:33:50Z</time>
      </trkpt>
      <trkpt lat="44.11476" lon="7.07056">
        <ele>1499</ele>
        <time>2012-07-08T12:33:53Z</time>
      </trkpt>
      <trkpt lat="44.11486" lon="7.07043">
        <ele>1498</ele>
        <time>2012-07-08T12:33:57Z</time>
      </trkpt>
      <trkpt lat="44.11495" lon="7.0703">
        <ele>1498</ele>
        <time>2012-07-08T12:34:01Z</time>
      </trkpt>
      <trkpt lat="44.11506" lon="7.07007">
        <ele>1497</ele>
        <time>2012-07-08T12:34:07Z</time>
      </trkpt>
      <trkpt lat="44.11516" lon="7.06979">
        <ele>1497</ele>
        <time>2012-07-08T12:34:14Z</time>
      </trkpt>
      <trkpt lat="44.1152" lon="7.06972">
        <ele>1497</ele>
        <time>2012-07-08T12:34:16Z</time>
      </trkpt>
      <trkpt lat="44.11528" lon="7.06947">
        <ele>1497</ele>
        <time>2012-07-08T12:34:22Z</time>
      </trkpt>
      <trkpt lat="44.11538" lon="7.0691">
        <ele>1497</ele>
        <time>2012-07-08T12:34:30Z</time>
      </trkpt>
      <trkpt lat="44.11541" lon="7.06902">
        <ele>1497</ele>
        <time>2012-07-08T12:34:32Z</time>
      </trkpt>
      <trkpt lat="44.11537" lon="7.0688">
        <ele>1497</ele>
        <time>2012-07-08T12:34:37Z</time>
      </trkpt>
      <trkpt lat="44.11529" lon="7.06861">
        <ele>1495</ele>
        <time>2012-07-08T12:34:41Z</time>
      </trkpt>
      <trkpt lat="44.11521" lon="7.06844">
        <ele>1494</ele>
        <time>2012-07-08T12:34:45Z</time>
      </trkpt>
      <trkpt lat="44.11513" lon="7.06824">
        <ele>1491</ele>
        <time>2012-07-08T12:34:50Z</time>
      </trkpt>
      <trkpt lat="44.11508" lon="7.06803">
        <ele>1489</ele>
        <time>2012-07-08T12:34:54Z</time>
      </trkpt>
      <trkpt lat="44.1152" lon="7.06777">
        <ele>1486</ele>
        <time>2012-07-08T12:35:01Z</time>
      </trkpt>
      <trkpt lat="44.11529" lon="7.06766">
        <ele>1486</ele>
        <time>2012-07-08T12:35:05Z</time>
      </trkpt>
      <trkpt lat="44.11539" lon="7.06749">
        <ele>1486</ele>
        <time>2012-07-08T12:35:10Z</time>
      </trkpt>
      <trkpt lat="44.11544" lon="7.06739">
        <ele>1487</ele>
        <time>2012-07-08T12:35:13Z</time>
      </trkpt>
      <trkpt lat="44.11552" lon="7.06721">
        <ele>1488</ele>
        <time>2012-07-08T12:35:18Z</time>
      </trkpt>
      <trkpt lat="44.11557" lon="7.06711">
        <ele>1489</ele>
        <time>2012-07-08T12:35:21Z</time>
      </trkpt>
      <trkpt lat="44.11557" lon="7.06711">
        <ele>1444.8</ele>
        <time>2012-07-08T12:35:32Z</time>
      </trkpt>
      <trkpt lat="44.11557" lon="7.06711">
        <ele>1444.8</ele>
        <time>2012-07-08T12:35:33Z</time>
      </trkpt>
      <trkpt lat="44.11569" lon="7.06644">
        <ele>1496</ele>
        <time>2012-07-08T12:35:39Z</time>
      </trkpt>
      <trkpt lat="44.11577" lon="7.06629">
        <ele>1498</ele>
        <time>2012-07-08T12:35:43Z</time>
      </trkpt>
      <trkpt lat="44.11584" lon="7.0661">
        <ele>1499</ele>
        <time>2012-07-08T12:35:47Z</time>
      </trkpt>
      <trkpt lat="44.1159" lon="7.0659">
        <ele>1501</ele>
        <time>2012-07-08T12:35:51Z</time>
      </trkpt>
      <trkpt lat="44.116" lon="7.06573">
        <ele>1503</ele>
        <time>2012-07-08T12:35:55Z</time>
      </trkpt>
      <trkpt lat="44.11611" lon="7.06556">
        <ele>1504</ele>
        <time>2012-07-08T12:35:59Z</time>
      </trkpt>
      <trkpt lat="44.11619" lon="7.06539">
        <ele>1506</ele>
        <time>2012-07-08T12:36:03Z</time>
      </trkpt>
      <trkpt lat="44.11627" lon="7.06511">
        <ele>1509</ele>
        <time>2012-07-08T12:36:10Z</time>
      </trkpt>
      <trkpt lat="44.11634" lon="7.0649">
        <ele>1510</ele>
        <time>2012-07-08T12:36:14Z</time>
      </trkpt>
      <trkpt lat="44.11649" lon="7.06451">
        <ele>1512</ele>
        <time>2012-07-08T12:36:23Z</time>
      </trkpt>
      <trkpt lat="44.11656" lon="7.06434">
        <ele>1512</ele>
        <time>2012-07-08T12:36:27Z</time>
      </trkpt>
      <trkpt lat="44.1166" lon="7.06427">
        <ele>1512</ele>
        <time>2012-07-08T12:36:29Z</time>
      </trkpt>
      <trkpt lat="44.1167" lon="7.0641">
        <ele>1512</ele>
        <time>2012-07-08T12:36:34Z</time>
      </trkpt>
      <trkpt lat="44.11678" lon="7.06393">
        <ele>1513</ele>
        <time>2012-07-08T12:36:38Z</time>
      </trkpt>
      <trkpt lat="44.11687" lon="7.06376">
        <ele>1513</ele>
        <time>2012-07-08T12:36:42Z</time>
      </trkpt>
      <trkpt lat="44.11695" lon="7.06359">
        <ele>1514</ele>
        <time>2012-07-08T12:36:46Z</time>
      </trkpt>
      <trkpt lat="44.117" lon="7.0635">
        <ele>1515</ele>
        <time>2012-07-08T12:36:49Z</time>
      </trkpt>
      <trkpt lat="44.11705" lon="7.06331">
        <ele>1516</ele>
        <time>2012-07-08T12:36:55Z</time>
      </trkpt>
      <trkpt lat="44.11705" lon="7.0632">
        <ele>1517</ele>
        <time>2012-07-08T12:36:59Z</time>
      </trkpt>
      <trkpt lat="44.11705" lon="7.0632">
        <ele>1462.7</ele>
        <time>2012-07-08T12:37:10Z</time>
      </trkpt>
      <trkpt lat="44.11705" lon="7.0632">
        <ele>1462.7</ele>
        <time>2012-07-08T12:37:12Z</time>
      </trkpt>
      <trkpt lat="44.11705" lon="7.0632">
        <ele>1462.7</ele>
        <time>2012-07-08T12:37:23Z</time>
      </trkpt>
      <trkpt lat="44.11705" lon="7.0632">
        <ele>1462.7</ele>
        <time>2012-07-08T12:37:25Z</time>
      </trkpt>
      <trkpt lat="44.11705" lon="7.0632">
        <ele>1462.7</ele>
        <time>2012-07-08T12:37:36Z</time>
      </trkpt>
      <trkpt lat="44.11705" lon="7.0632">
        <ele>1462.7</ele>
        <time>2012-07-08T12:38:05Z</time>
      </trkpt>
      <trkpt lat="44.11705" lon="7.0632">
        <ele>1462.7</ele>
        <time>2012-07-08T12:38:16Z</time>
      </trkpt>
      <trkpt lat="44.11705" lon="7.0632">
        <ele>1462.7</ele>
        <time>2012-07-08T12:38:27Z</time>
      </trkpt>
      <trkpt lat="44.11716" lon="7.06277">
        <ele>1512</ele>
        <time>2012-07-08T12:38:35Z</time>
      </trkpt>
      <trkpt lat="44.11722" lon="7.06275">
        <ele>1512</ele>
        <time>2012-07-08T12:38:46Z</time>
      </trkpt>
      <trkpt lat="44.11722" lon="7.06275">
        <ele>1462.6</ele>
        <time>2012-07-08T12:38:57Z</time>
      </trkpt>
      <trkpt lat="44.11722" lon="7.06275">
        <ele>1462.6</ele>
        <time>2012-07-08T12:39:13Z</time>
      </trkpt>
      <trkpt lat="44.11722" lon="7.06275">
        <ele>1462.6</ele>
        <time>2012-07-08T12:39:24Z</time>
      </trkpt>
      <trkpt lat="44.11722" lon="7.06275">
        <ele>1462.6</ele>
        <time>2012-07-08T12:39:30Z</time>
      </trkpt>
      <trkpt lat="44.11732" lon="7.0629">
        <ele>1510</ele>
        <time>2012-07-08T12:39:33Z</time>
      </trkpt>
      <trkpt lat="44.1174" lon="7.06312">
        <ele>1509</ele>
        <time>2012-07-08T12:39:37Z</time>
      </trkpt>
      <trkpt lat="44.11742" lon="7.06339">
        <ele>1508</ele>
        <time>2012-07-08T12:39:41Z</time>
      </trkpt>
      <trkpt lat="44.11741" lon="7.06352">
        <ele>1508</ele>
        <time>2012-07-08T12:39:43Z</time>
      </trkpt>
      <trkpt lat="44.1174" lon="7.06387">
        <ele>1506</ele>
        <time>2012-07-08T12:39:49Z</time>
      </trkpt>
      <trkpt lat="44.11747" lon="7.06391">
        <ele>1506</ele>
        <time>2012-07-08T12:39:52Z</time>
      </trkpt>
      <trkpt lat="44.11756" lon="7.06382">
        <ele>1506</ele>
        <time>2012-07-08T12:39:57Z</time>
      </trkpt>
      <trkpt lat="44.11756" lon="7.06382">
        <ele>1443.3</ele>
        <time>2012-07-08T12:40:08Z</time>
      </trkpt>
      <trkpt lat="44.11756" lon="7.06382">
        <ele>1443.3</ele>
        <time>2012-07-08T12:40:34Z</time>
      </trkpt>
      <trkpt lat="44.11739" lon="7.06402">
        <ele>1503</ele>
        <time>2012-07-08T12:40:40Z</time>
      </trkpt>
      <trkpt lat="44.11733" lon="7.06412">
        <ele>1502</ele>
        <time>2012-07-08T12:40:45Z</time>
      </trkpt>
      <trkpt lat="44.11724" lon="7.06425">
        <ele>1501</ele>
        <time>2012-07-08T12:40:50Z</time>
      </trkpt>
      <trkpt lat="44.11706" lon="7.06457">
        <ele>1495</ele>
        <time>2012-07-08T12:40:55Z</time>
      </trkpt>
      <trkpt lat="44.11691" lon="7.06483">
        <ele>1493</ele>
        <time>2012-07-08T12:40:58Z</time>
      </trkpt>
      <trkpt lat="44.1167" lon="7.06524">
        <ele>1490</ele>
        <time>2012-07-08T12:41:03Z</time>
      </trkpt>
      <trkpt lat="44.11667" lon="7.06533">
        <ele>1490</ele>
        <time>2012-07-08T12:41:05Z</time>
      </trkpt>
      <trkpt lat="44.11666" lon="7.06552">
        <ele>1489</ele>
        <time>2012-07-08T12:41:11Z</time>
      </trkpt>
      <trkpt lat="44.11666" lon="7.06567">
        <ele>1488</ele>
        <time>2012-07-08T12:41:14Z</time>
      </trkpt>
      <trkpt lat="44.11665" lon="7.06593">
        <ele>1481</ele>
        <time>2012-07-08T12:41:18Z</time>
      </trkpt>
      <trkpt lat="44.11659" lon="7.06633">
        <ele>1477</ele>
        <time>2012-07-08T12:41:23Z</time>
      </trkpt>
      <trkpt lat="44.11656" lon="7.06657">
        <ele>1476</ele>
        <time>2012-07-08T12:41:27Z</time>
      </trkpt>
      <trkpt lat="44.11673" lon="7.06672">
        <ele>1473</ele>
        <time>2012-07-08T12:41:31Z</time>
      </trkpt>
      <trkpt lat="44.11696" lon="7.06674">
        <ele>1469</ele>
        <time>2012-07-08T12:41:35Z</time>
      </trkpt>
      <trkpt lat="44.11722" lon="7.06687">
        <ele>1467</ele>
        <time>2012-07-08T12:41:39Z</time>
      </trkpt>
      <trkpt lat="44.11738" lon="7.06698">
        <ele>1466</ele>
        <time>2012-07-08T12:41:42Z</time>
      </trkpt>
      <trkpt lat="44.1175" lon="7.06721">
        <ele>1464</ele>
        <time>2012-07-08T12:41:48Z</time>
      </trkpt>
      <trkpt lat="44.11748" lon="7.06756">
        <ele>1458</ele>
        <time>2012-07-08T12:41:54Z</time>
      </trkpt>
      <trkpt lat="44.11736" lon="7.06769">
        <ele>1453</ele>
        <time>2012-07-08T12:41:59Z</time>
      </trkpt>
      <trkpt lat="44.11732" lon="7.06777">
        <ele>1451</ele>
        <time>2012-07-08T12:42:01Z</time>
      </trkpt>
      <trkpt lat="44.11732" lon="7.06777">
        <ele>1375.8</ele>
        <time>2012-07-08T12:42:12Z</time>
      </trkpt>
      <trkpt lat="44.11732" lon="7.06777">
        <ele>1375.8</ele>
        <time>2012-07-08T12:42:20Z</time>
      </trkpt>
      <trkpt lat="44.11702" lon="7.06794">
        <ele>1442</ele>
        <time>2012-07-08T12:42:22Z</time>
      </trkpt>
      <trkpt lat="44.11676" lon="7.06816">
        <ele>1429</ele>
        <time>2012-07-08T12:42:27Z</time>
      </trkpt>
      <trkpt lat="44.11665" lon="7.06835">
        <ele>1425</ele>
        <time>2012-07-08T12:42:30Z</time>
      </trkpt>
      <trkpt lat="44.11655" lon="7.06863">
        <ele>1424</ele>
        <time>2012-07-08T12:42:38Z</time>
      </trkpt>
      <trkpt lat="44.11652" lon="7.06872">
        <ele>1424</ele>
        <time>2012-07-08T12:42:42Z</time>
      </trkpt>
      <trkpt lat="44.11659" lon="7.06893">
        <ele>1421</ele>
        <time>2012-07-08T12:42:46Z</time>
      </trkpt>
      <trkpt lat="44.11664" lon="7.06908">
        <ele>1420</ele>
        <time>2012-07-08T12:42:48Z</time>
      </trkpt>
      <trkpt lat="44.1167" lon="7.06964">
        <ele>1420</ele>
        <time>2012-07-08T12:42:55Z</time>
      </trkpt>
      <trkpt lat="44.11665" lon="7.06998">
        <ele>1420</ele>
        <time>2012-07-08T12:42:59Z</time>
      </trkpt>
      <trkpt lat="44.11649" lon="7.0705">
        <ele>1420</ele>
        <time>2012-07-08T12:43:07Z</time>
      </trkpt>
      <trkpt lat="44.11637" lon="7.07075">
        <ele>1419</ele>
        <time>2012-07-08T12:43:14Z</time>
      </trkpt>
      <trkpt lat="44.11629" lon="7.07095">
        <ele>1419</ele>
        <time>2012-07-08T12:43:18Z</time>
      </trkpt>
      <trkpt lat="44.11623" lon="7.07123">
        <ele>1418</ele>
        <time>2012-07-08T12:43:22Z</time>
      </trkpt>
      <trkpt lat="44.11623" lon="7.07155">
        <ele>1419</ele>
        <time>2012-07-08T12:43:26Z</time>
      </trkpt>
      <trkpt lat="44.11624" lon="7.07193">
        <ele>1414</ele>
        <time>2012-07-08T12:43:30Z</time>
      </trkpt>
      <trkpt lat="44.11619" lon="7.07202">
        <ele>1414</ele>
        <time>2012-07-08T12:43:32Z</time>
      </trkpt>
      <trkpt lat="44.11596" lon="7.07221">
        <ele>1412</ele>
        <time>2012-07-08T12:43:40Z</time>
      </trkpt>
      <trkpt lat="44.11587" lon="7.07271">
        <ele>1405</ele>
        <time>2012-07-08T12:43:47Z</time>
      </trkpt>
      <trkpt lat="44.11578" lon="7.07296">
        <ele>1404</ele>
        <time>2012-07-08T12:43:51Z</time>
      </trkpt>
      <trkpt lat="44.11573" lon="7.07314">
        <ele>1404</ele>
        <time>2012-07-08T12:43:55Z</time>
      </trkpt>
      <trkpt lat="44.11589" lon="7.07378">
        <ele>1403</ele>
        <time>2012-07-08T12:44:03Z</time>
      </trkpt>
      <trkpt lat="44.11599" lon="7.0741">
        <ele>1402</ele>
        <time>2012-07-08T12:44:06Z</time>
      </trkpt>
      <trkpt lat="44.11604" lon="7.07436">
        <ele>1398</ele>
        <time>2012-07-08T12:44:10Z</time>
      </trkpt>
      <trkpt lat="44.11615" lon="7.0747">
        <ele>1386</ele>
        <time>2012-07-08T12:44:14Z</time>
      </trkpt>
      <trkpt lat="44.11619" lon="7.07505">
        <ele>1379</ele>
        <time>2012-07-08T12:44:18Z</time>
      </trkpt>
      <trkpt lat="44.11618" lon="7.07532">
        <ele>1375</ele>
        <time>2012-07-08T12:44:22Z</time>
      </trkpt>
      <trkpt lat="44.11617" lon="7.0756">
        <ele>1372</ele>
        <time>2012-07-08T12:44:26Z</time>
      </trkpt>
      <trkpt lat="44.11624" lon="7.07593">
        <ele>1369</ele>
        <time>2012-07-08T12:44:31Z</time>
      </trkpt>
      <trkpt lat="44.11634" lon="7.07629">
        <ele>1366</ele>
        <time>2012-07-08T12:44:35Z</time>
      </trkpt>
      <trkpt lat="44.1164" lon="7.07661">
        <ele>1355</ele>
        <time>2012-07-08T12:44:38Z</time>
      </trkpt>
      <trkpt lat="44.11645" lon="7.07708">
        <ele>1345</ele>
        <time>2012-07-08T12:44:43Z</time>
      </trkpt>
      <trkpt lat="44.11649" lon="7.07741">
        <ele>1332</ele>
        <time>2012-07-08T12:44:47Z</time>
      </trkpt>
      <trkpt lat="44.11657" lon="7.07747">
        <ele>1328</ele>
        <time>2012-07-08T12:44:54Z</time>
      </trkpt>
      <trkpt lat="44.11657" lon="7.07747">
        <ele>1232.1</ele>
        <time>2012-07-08T12:45:05Z</time>
      </trkpt>
      <trkpt lat="44.11657" lon="7.07747">
        <ele>1232.1</ele>
        <time>2012-07-08T12:45:26Z</time>
      </trkpt>
      <trkpt lat="44.11657" lon="7.07747">
        <ele>1232.1</ele>
        <time>2012-07-08T12:45:37Z</time>
      </trkpt>
      <trkpt lat="44.11657" lon="7.07747">
        <ele>1232.1</ele>
        <time>2012-07-08T12:45:40Z</time>
      </trkpt>
      <trkpt lat="44.11677" lon="7.07784">
        <ele>1312</ele>
        <time>2012-07-08T12:45:44Z</time>
      </trkpt>
      <trkpt lat="44.11681" lon="7.0779">
        <ele>1308</ele>
        <time>2012-07-08T12:45:50Z</time>
      </trkpt>
      <trkpt lat="44.11678" lon="7.07801">
        <ele>1307</ele>
        <time>2012-07-08T12:45:53Z</time>
      </trkpt>
      <trkpt lat="44.11678" lon="7.07801">
        <ele>1210.7</ele>
        <time>2012-07-08T12:46:04Z</time>
      </trkpt>
      <trkpt lat="44.11678" lon="7.07801">
        <ele>1210.7</ele>
        <time>2012-07-08T12:46:07Z</time>
      </trkpt>
      <trkpt lat="44.11705" lon="7.07822">
        <ele>1293</ele>
        <time>2012-07-08T12:46:16Z</time>
      </trkpt>
      <trkpt lat="44.11708" lon="7.07831">
        <ele>1291</ele>
        <time>2012-07-08T12:46:21Z</time>
      </trkpt>
      <trkpt lat="44.11712" lon="7.07841">
        <ele>1289</ele>
        <time>2012-07-08T12:46:24Z</time>
      </trkpt>
      <trkpt lat="44.11721" lon="7.07852">
        <ele>1283</ele>
        <time>2012-07-08T12:46:33Z</time>
      </trkpt>
      <trkpt lat="44.11732" lon="7.07856">
        <ele>1278</ele>
        <time>2012-07-08T12:46:40Z</time>
      </trkpt>
      <trkpt lat="44.11739" lon="7.07861">
        <ele>1274</ele>
        <time>2012-07-08T12:46:46Z</time>
      </trkpt>
      <trkpt lat="44.11739" lon="7.07861">
        <ele>1168.8</ele>
        <time>2012-07-08T12:46:57Z</time>
      </trkpt>
      <trkpt lat="44.11739" lon="7.07861">
        <ele>1168.8</ele>
        <time>2012-07-08T12:47:06Z</time>
      </trkpt>
      <trkpt lat="44.11779" lon="7.07904">
        <ele>1251</ele>
        <time>2012-07-08T12:47:11Z</time>
      </trkpt>
      <trkpt lat="44.11778" lon="7.07919">
        <ele>1250</ele>
        <time>2012-07-08T12:47:14Z</time>
      </trkpt>
      <trkpt lat="44.11769" lon="7.07936">
        <ele>1248</ele>
        <time>2012-07-08T12:47:18Z</time>
      </trkpt>
      <trkpt lat="44.11756" lon="7.07949">
        <ele>1241</ele>
        <time>2012-07-08T12:47:22Z</time>
      </trkpt>
      <trkpt lat="44.1174" lon="7.07966">
        <ele>1227</ele>
        <time>2012-07-08T12:47:26Z</time>
      </trkpt>
      <trkpt lat="44.11727" lon="7.07983">
        <ele>1222</ele>
        <time>2012-07-08T12:47:30Z</time>
      </trkpt>
      <trkpt lat="44.11708" lon="7.07996">
        <ele>1220</ele>
        <time>2012-07-08T12:47:37Z</time>
      </trkpt>
      <trkpt lat="44.11694" lon="7.08024">
        <ele>1218</ele>
        <time>2012-07-08T12:47:47Z</time>
      </trkpt>
      <trkpt lat="44.11707" lon="7.08035">
        <ele>1217</ele>
        <time>2012-07-08T12:47:51Z</time>
      </trkpt>
      <trkpt lat="44.11715" lon="7.08035">
        <ele>1217</ele>
        <time>2012-07-08T12:47:53Z</time>
      </trkpt>
      <trkpt lat="44.11705" lon="7.08056">
        <ele>1212</ele>
        <time>2012-07-08T12:48:03Z</time>
      </trkpt>
      <trkpt lat="44.11695" lon="7.08071">
        <ele>1210</ele>
        <time>2012-07-08T12:48:07Z</time>
      </trkpt>
      <trkpt lat="44.11699" lon="7.08082">
        <ele>1209</ele>
        <time>2012-07-08T12:48:10Z</time>
      </trkpt>
      <trkpt lat="44.11718" lon="7.08086">
        <ele>1193</ele>
        <time>2012-07-08T12:48:14Z</time>
      </trkpt>
      <trkpt lat="44.11724" lon="7.08086">
        <ele>1191</ele>
        <time>2012-07-08T12:48:16Z</time>
      </trkpt>
      <trkpt lat="44.11736" lon="7.08103">
        <ele>1187</ele>
        <time>2012-07-08T12:48:27Z</time>
      </trkpt>
      <trkpt lat="44.11737" lon="7.08114">
        <ele>1185</ele>
        <time>2012-07-08T12:48:33Z</time>
      </trkpt>
      <trkpt lat="44.11741" lon="7.0812">
        <ele>1183</ele>
        <time>2012-07-08T12:48:36Z</time>
      </trkpt>
      <trkpt lat="44.11758" lon="7.08135">
        <ele>1179</ele>
        <time>2012-07-08T12:48:47Z</time>
      </trkpt>
      <trkpt lat="44.11764" lon="7.08138">
        <ele>1178</ele>
        <time>2012-07-08T12:48:49Z</time>
      </trkpt>
      <trkpt lat="44.11762" lon="7.08146">
        <ele>1174</ele>
        <time>2012-07-08T12:48:56Z</time>
      </trkpt>
      <trkpt lat="44.11765" lon="7.08157">
        <ele>1164</ele>
        <time>2012-07-08T12:49:01Z</time>
      </trkpt>
      <trkpt lat="44.11779" lon="7.08161">
        <ele>1156</ele>
        <time>2012-07-08T12:49:06Z</time>
      </trkpt>
      <trkpt lat="44.11785" lon="7.08163">
        <ele>1151</ele>
        <time>2012-07-08T12:49:08Z</time>
      </trkpt>
      <trkpt lat="44.11792" lon="7.08168">
        <ele>1149</ele>
        <time>2012-07-08T12:49:13Z</time>
      </trkpt>
      <trkpt lat="44.11788" lon="7.08187">
        <ele>1147</ele>
        <time>2012-07-08T12:49:18Z</time>
      </trkpt>
      <trkpt lat="44.11776" lon="7.08204">
        <ele>1144</ele>
        <time>2012-07-08T12:49:23Z</time>
      </trkpt>
      <trkpt lat="44.11765" lon="7.08217">
        <ele>1142</ele>
        <time>2012-07-08T12:49:27Z</time>
      </trkpt>
      <trkpt lat="44.11762" lon="7.08226">
        <ele>1141</ele>
        <time>2012-07-08T12:49:29Z</time>
      </trkpt>
      <trkpt lat="44.11753" lon="7.08243">
        <ele>1135</ele>
        <time>2012-07-08T12:49:34Z</time>
      </trkpt>
      <trkpt lat="44.11742" lon="7.08262">
        <ele>1124</ele>
        <time>2012-07-08T12:49:38Z</time>
      </trkpt>
      <trkpt lat="44.11742" lon="7.08262">
        <ele>992.7</ele>
        <time>2012-07-08T12:49:49Z</time>
      </trkpt>
      <trkpt lat="44.11742" lon="7.08262">
        <ele>992.7</ele>
        <time>2012-07-08T12:49:59Z</time>
      </trkpt>
      <trkpt lat="44.11742" lon="7.08262">
        <ele>992.7</ele>
        <time>2012-07-08T12:50:10Z</time>
      </trkpt>
      <trkpt lat="44.11742" lon="7.08262">
        <ele>992.7</ele>
        <time>2012-07-08T12:50:16Z</time>
      </trkpt>
      <trkpt lat="44.11735" lon="7.08318">
        <ele>1111</ele>
        <time>2012-07-08T12:50:19Z</time>
      </trkpt>
      <trkpt lat="44.1173" lon="7.08324">
        <ele>1109</ele>
        <time>2012-07-08T12:50:21Z</time>
      </trkpt>
      <trkpt lat="44.11722" lon="7.08333">
        <ele>1106</ele>
        <time>2012-07-08T12:50:25Z</time>
      </trkpt>
      <trkpt lat="44.11722" lon="7.08333">
        <ele>969.2</ele>
        <time>2012-07-08T12:50:36Z</time>
      </trkpt>
      <trkpt lat="44.11722" lon="7.08333">
        <ele>969.2</ele>
        <time>2012-07-08T12:50:38Z</time>
      </trkpt>
      <trkpt lat="44.11701" lon="7.0835">
        <ele>1093</ele>
        <time>2012-07-08T12:50:44Z</time>
      </trkpt>
      <trkpt lat="44.11701" lon="7.0835">
        <ele>969.7</ele>
        <time>2012-07-08T12:50:55Z</time>
      </trkpt>
      <trkpt lat="44.11701" lon="7.0835">
        <ele>969.7</ele>
        <time>2012-07-08T12:51:21Z</time>
      </trkpt>
      <trkpt lat="44.11671" lon="7.08341">
        <ele>1079</ele>
        <time>2012-07-08T12:51:27Z</time>
      </trkpt>
      <trkpt lat="44.11656" lon="7.08331">
        <ele>1073</ele>
        <time>2012-07-08T12:51:33Z</time>
      </trkpt>
      <trkpt lat="44.11656" lon="7.08331">
        <ele>979.4</ele>
        <time>2012-07-08T12:51:44Z</time>
      </trkpt>
      <trkpt lat="44.11656" lon="7.08331">
        <ele>979.4</ele>
        <time>2012-07-08T12:51:49Z</time>
      </trkpt>
      <trkpt lat="44.11636" lon="7.08376">
        <ele>1051</ele>
        <time>2012-07-08T12:51:51Z</time>
      </trkpt>
      <trkpt lat="44.11635" lon="7.08399">
        <ele>1048</ele>
        <time>2012-07-08T12:51:56Z</time>
      </trkpt>
      <trkpt lat="44.1163" lon="7.08419">
        <ele>1046</ele>
        <time>2012-07-08T12:52:00Z</time>
      </trkpt>
      <trkpt lat="44.11627" lon="7.0844">
        <ele>1043</ele>
        <time>2012-07-08T12:52:04Z</time>
      </trkpt>
      <trkpt lat="44.11619" lon="7.08457">
        <ele>1041</ele>
        <time>2012-07-08T12:52:08Z</time>
      </trkpt>
      <trkpt lat="44.11611" lon="7.08472">
        <ele>1038</ele>
        <time>2012-07-08T12:52:12Z</time>
      </trkpt>
      <trkpt lat="44.11606" lon="7.08483">
        <ele>1036</ele>
        <time>2012-07-08T12:52:15Z</time>
      </trkpt>
      <trkpt lat="44.11598" lon="7.08502">
        <ele>1033</ele>
        <time>2012-07-08T12:52:20Z</time>
      </trkpt>
      <trkpt lat="44.11588" lon="7.08517">
        <ele>1030</ele>
        <time>2012-07-08T12:52:24Z</time>
      </trkpt>
      <trkpt lat="44.11584" lon="7.08524">
        <ele>1029</ele>
        <time>2012-07-08T12:52:26Z</time>
      </trkpt>
      <trkpt lat="44.11579" lon="7.08535">
        <ele>1027</ele>
        <time>2012-07-08T12:52:29Z</time>
      </trkpt>
      <trkpt lat="44.11589" lon="7.08556">
        <ele>1020</ele>
        <time>2012-07-08T12:52:37Z</time>
      </trkpt>
      <trkpt lat="44.11589" lon="7.08569">
        <ele>1017</ele>
        <time>2012-07-08T12:52:41Z</time>
      </trkpt>
      <trkpt lat="44.1158" lon="7.08577">
        <ele>1012</ele>
        <time>2012-07-08T12:52:47Z</time>
      </trkpt>
      <trkpt lat="44.11569" lon="7.0858">
        <ele>1009</ele>
        <time>2012-07-08T12:52:52Z</time>
      </trkpt>
      <trkpt lat="44.11558" lon="7.08577">
        <ele>1005</ele>
        <time>2012-07-08T12:52:57Z</time>
      </trkpt>
      <trkpt lat="44.11542" lon="7.08577">
        <ele>1001</ele>
        <time>2012-07-08T12:53:04Z</time>
      </trkpt>
      <trkpt lat="44.11532" lon="7.08577">
        <ele>999</ele>
        <time>2012-07-08T12:53:08Z</time>
      </trkpt>
      <trkpt lat="44.11523" lon="7.08575">
        <ele>996</ele>
        <time>2012-07-08T12:53:14Z</time>
      </trkpt>
      <trkpt lat="44.11506" lon="7.0856">
        <ele>994</ele>
        <time>2012-07-08T12:53:20Z</time>
      </trkpt>
      <trkpt lat="44.11494" lon="7.08545">
        <ele>993</ele>
        <time>2012-07-08T12:53:24Z</time>
      </trkpt>
      <trkpt lat="44.11487" lon="7.08543">
        <ele>992</ele>
        <time>2012-07-08T12:53:26Z</time>
      </trkpt>
      <trkpt lat="44.11471" lon="7.08535">
        <ele>990</ele>
        <time>2012-07-08T12:53:32Z</time>
      </trkpt>
      <trkpt lat="44.11464" lon="7.08517">
        <ele>988</ele>
        <time>2012-07-08T12:53:36Z</time>
      </trkpt>
      <trkpt lat="44.11455" lon="7.08498">
        <ele>979</ele>
        <time>2012-07-08T12:53:40Z</time>
      </trkpt>
      <trkpt lat="44.11442" lon="7.08479">
        <ele>973</ele>
        <time>2012-07-08T12:53:44Z</time>
      </trkpt>
      <trkpt lat="44.11431" lon="7.08459">
        <ele>971</ele>
        <time>2012-07-08T12:53:48Z</time>
      </trkpt>
      <trkpt lat="44.11422" lon="7.08438">
        <ele>970</ele>
        <time>2012-07-08T12:53:52Z</time>
      </trkpt>
      <trkpt lat="44.11415" lon="7.08436">
        <ele>970</ele>
        <time>2012-07-08T12:53:54Z</time>
      </trkpt>
      <trkpt lat="44.11405" lon="7.08449">
        <ele>969</ele>
        <time>2012-07-08T12:54:00Z</time>
      </trkpt>
      <trkpt lat="44.11398" lon="7.08455">
        <ele>969</ele>
        <time>2012-07-08T12:54:03Z</time>
      </trkpt>
      <trkpt lat="44.11394" lon="7.08462">
        <ele>969</ele>
        <time>2012-07-08T12:54:06Z</time>
      </trkpt>
      <trkpt lat="44.1139" lon="7.08468">
        <ele>969</ele>
        <time>2012-07-08T12:54:09Z</time>
      </trkpt>
      <trkpt lat="44.11378" lon="7.08483">
        <ele>968</ele>
        <time>2012-07-08T12:54:17Z</time>
      </trkpt>
      <trkpt lat="44.11378" lon="7.08483">
        <ele>911.3</ele>
        <time>2012-07-08T12:54:28Z</time>
      </trkpt>
      <trkpt lat="44.11378" lon="7.08483">
        <ele>911.3</ele>
        <time>2012-07-08T12:54:33Z</time>
      </trkpt>
      <trkpt lat="44.11347" lon="7.08541">
        <ele>969</ele>
        <time>2012-07-08T12:54:44Z</time>
      </trkpt>
      <trkpt lat="44.11344" lon="7.08554">
        <ele>969</ele>
        <time>2012-07-08T12:54:49Z</time>
      </trkpt>
      <trkpt lat="44.11338" lon="7.08567">
        <ele>969</ele>
        <time>2012-07-08T12:54:54Z</time>
      </trkpt>
      <trkpt lat="44.11333" lon="7.08577">
        <ele>969</ele>
        <time>2012-07-08T12:54:58Z</time>
      </trkpt>
      <trkpt lat="44.11323" lon="7.08595">
        <ele>970</ele>
        <time>2012-07-08T12:55:05Z</time>
      </trkpt>
      <trkpt lat="44.11315" lon="7.08601">
        <ele>970</ele>
        <time>2012-07-08T12:55:09Z</time>
      </trkpt>
      <trkpt lat="44.11309" lon="7.08607">
        <ele>970</ele>
        <time>2012-07-08T12:55:12Z</time>
      </trkpt>
      <trkpt lat="44.11289" lon="7.08623">
        <ele>971</ele>
        <time>2012-07-08T12:55:20Z</time>
      </trkpt>
      <trkpt lat="44.11278" lon="7.08638">
        <ele>972</ele>
        <time>2012-07-08T12:55:25Z</time>
      </trkpt>
      <trkpt lat="44.11269" lon="7.0865">
        <ele>972</ele>
        <time>2012-07-08T12:55:29Z</time>
      </trkpt>
      <trkpt lat="44.11254" lon="7.08674">
        <ele>974</ele>
        <time>2012-07-08T12:55:37Z</time>
      </trkpt>
      <trkpt lat="44.11247" lon="7.08678">
        <ele>974</ele>
        <time>2012-07-08T12:55:40Z</time>
      </trkpt>
      <trkpt lat="44.11237" lon="7.08683">
        <ele>975</ele>
        <time>2012-07-08T12:55:44Z</time>
      </trkpt>
      <trkpt lat="44.1123" lon="7.08685">
        <ele>976</ele>
        <time>2012-07-08T12:55:47Z</time>
      </trkpt>
      <trkpt lat="44.11221" lon="7.08687">
        <ele>976</ele>
        <time>2012-07-08T12:55:51Z</time>
      </trkpt>
      <trkpt lat="44.11205" lon="7.08689">
        <ele>977</ele>
        <time>2012-07-08T12:55:57Z</time>
      </trkpt>
      <trkpt lat="44.11182" lon="7.08715">
        <ele>978</ele>
        <time>2012-07-08T12:56:09Z</time>
      </trkpt>
      <trkpt lat="44.11181" lon="7.08726">
        <ele>979</ele>
        <time>2012-07-08T12:56:12Z</time>
      </trkpt>
      <trkpt lat="44.1118" lon="7.08736">
        <ele>979</ele>
        <time>2012-07-08T12:56:15Z</time>
      </trkpt>
      <trkpt lat="44.11172" lon="7.08756">
        <ele>979</ele>
        <time>2012-07-08T12:56:21Z</time>
      </trkpt>
      <trkpt lat="44.11169" lon="7.08764">
        <ele>979</ele>
        <time>2012-07-08T12:56:23Z</time>
      </trkpt>
      <trkpt lat="44.11161" lon="7.08783">
        <ele>979</ele>
        <time>2012-07-08T12:56:29Z</time>
      </trkpt>
      <trkpt lat="44.11158" lon="7.08794">
        <ele>979</ele>
        <time>2012-07-08T12:56:32Z</time>
      </trkpt>
      <trkpt lat="44.11147" lon="7.08811">
        <ele>979</ele>
        <time>2012-07-08T12:56:37Z</time>
      </trkpt>
      <trkpt lat="44.11137" lon="7.08824">
        <ele>980</ele>
        <time>2012-07-08T12:56:41Z</time>
      </trkpt>
      <trkpt lat="44.11132" lon="7.08835">
        <ele>980</ele>
        <time>2012-07-08T12:56:44Z</time>
      </trkpt>
      <trkpt lat="44.11123" lon="7.08844">
        <ele>981</ele>
        <time>2012-07-08T12:56:47Z</time>
      </trkpt>
      <trkpt lat="44.11109" lon="7.08856">
        <ele>982</ele>
        <time>2012-07-08T12:56:53Z</time>
      </trkpt>
      <trkpt lat="44.11103" lon="7.08863">
        <ele>983</ele>
        <time>2012-07-08T12:56:56Z</time>
      </trkpt>
      <trkpt lat="44.11098" lon="7.08869">
        <ele>983</ele>
        <time>2012-07-08T12:56:59Z</time>
      </trkpt>
      <trkpt lat="44.11091" lon="7.08886">
        <ele>985</ele>
        <time>2012-07-08T12:57:05Z</time>
      </trkpt>
      <trkpt lat="44.11091" lon="7.08899">
        <ele>985</ele>
        <time>2012-07-08T12:57:08Z</time>
      </trkpt>
      <trkpt lat="44.11089" lon="7.08912">
        <ele>986</ele>
        <time>2012-07-08T12:57:11Z</time>
      </trkpt>
      <trkpt lat="44.11081" lon="7.08929">
        <ele>986</ele>
        <time>2012-07-08T12:57:16Z</time>
      </trkpt>
      <trkpt lat="44.11073" lon="7.08949">
        <ele>987</ele>
        <time>2012-07-08T12:57:21Z</time>
      </trkpt>
      <trkpt lat="44.11071" lon="7.08957">
        <ele>987</ele>
        <time>2012-07-08T12:57:23Z</time>
      </trkpt>
      <trkpt lat="44.11061" lon="7.08977">
        <ele>989</ele>
        <time>2012-07-08T12:57:29Z</time>
      </trkpt>
      <trkpt lat="44.11056" lon="7.08983">
        <ele>989</ele>
        <time>2012-07-08T12:57:33Z</time>
      </trkpt>
      <trkpt lat="44.11052" lon="7.08994">
        <ele>990</ele>
        <time>2012-07-08T12:57:37Z</time>
      </trkpt>
      <trkpt lat="44.11049" lon="7.09004">
        <ele>990</ele>
        <time>2012-07-08T12:57:40Z</time>
      </trkpt>
      <trkpt lat="44.11045" lon="7.09013">
        <ele>991</ele>
        <time>2012-07-08T12:57:43Z</time>
      </trkpt>
      <trkpt lat="44.11034" lon="7.0903">
        <ele>991</ele>
        <time>2012-07-08T12:57:49Z</time>
      </trkpt>
      <trkpt lat="44.11028" lon="7.09037">
        <ele>992</ele>
        <time>2012-07-08T12:57:52Z</time>
      </trkpt>
      <trkpt lat="44.11022" lon="7.09043">
        <ele>992</ele>
        <time>2012-07-08T12:57:55Z</time>
      </trkpt>
      <trkpt lat="44.1101" lon="7.09052">
        <ele>993</ele>
        <time>2012-07-08T12:58:01Z</time>
      </trkpt>
      <trkpt lat="44.11003" lon="7.09054">
        <ele>993</ele>
        <time>2012-07-08T12:58:04Z</time>
      </trkpt>
      <trkpt lat="44.10995" lon="7.09073">
        <ele>994</ele>
        <time>2012-07-08T12:58:11Z</time>
      </trkpt>
      <trkpt lat="44.10997" lon="7.09097">
        <ele>995</ele>
        <time>2012-07-08T12:58:16Z</time>
      </trkpt>
      <trkpt lat="44.10995" lon="7.0912">
        <ele>996</ele>
        <time>2012-07-08T12:58:21Z</time>
      </trkpt>
      <trkpt lat="44.10984" lon="7.09135">
        <ele>998</ele>
        <time>2012-07-08T12:58:25Z</time>
      </trkpt>
      <trkpt lat="44.10979" lon="7.09142">
        <ele>998</ele>
        <time>2012-07-08T12:58:27Z</time>
      </trkpt>
      <trkpt lat="44.1097" lon="7.09148">
        <ele>999</ele>
        <time>2012-07-08T12:58:30Z</time>
      </trkpt>
      <trkpt lat="44.10946" lon="7.09168">
        <ele>1001</ele>
        <time>2012-07-08T12:58:39Z</time>
      </trkpt>
      <trkpt lat="44.1093" lon="7.0918">
        <ele>1003</ele>
        <time>2012-07-08T12:58:45Z</time>
      </trkpt>
      <trkpt lat="44.10926" lon="7.09187">
        <ele>1003</ele>
        <time>2012-07-08T12:58:47Z</time>
      </trkpt>
      <trkpt lat="44.1092" lon="7.09208">
        <ele>1004</ele>
        <time>2012-07-08T12:58:52Z</time>
      </trkpt>
      <trkpt lat="44.10914" lon="7.09228">
        <ele>1004</ele>
        <time>2012-07-08T12:58:56Z</time>
      </trkpt>
      <trkpt lat="44.10909" lon="7.09247">
        <ele>1005</ele>
        <time>2012-07-08T12:59:01Z</time>
      </trkpt>
      <trkpt lat="44.10906" lon="7.09256">
        <ele>1006</ele>
        <time>2012-07-08T12:59:03Z</time>
      </trkpt>
      <trkpt lat="44.10896" lon="7.09275">
        <ele>1007</ele>
        <time>2012-07-08T12:59:09Z</time>
      </trkpt>
      <trkpt lat="44.1088" lon="7.09298">
        <ele>1009</ele>
        <time>2012-07-08T12:59:17Z</time>
      </trkpt>
      <trkpt lat="44.10873" lon="7.09305">
        <ele>1010</ele>
        <time>2012-07-08T12:59:20Z</time>
      </trkpt>
      <trkpt lat="44.10862" lon="7.09318">
        <ele>1012</ele>
        <time>2012-07-08T12:59:26Z</time>
      </trkpt>
      <trkpt lat="44.10832" lon="7.09316">
        <ele>1014</ele>
        <time>2012-07-08T12:59:37Z</time>
      </trkpt>
      <trkpt lat="44.10823" lon="7.09309">
        <ele>1014</ele>
        <time>2012-07-08T12:59:40Z</time>
      </trkpt>
      <trkpt lat="44.10813" lon="7.09296">
        <ele>1015</ele>
        <time>2012-07-08T12:59:44Z</time>
      </trkpt>
      <trkpt lat="44.10802" lon="7.09283">
        <ele>1015</ele>
        <time>2012-07-08T12:59:49Z</time>
      </trkpt>
      <trkpt lat="44.10793" lon="7.09277">
        <ele>1016</ele>
        <time>2012-07-08T12:59:52Z</time>
      </trkpt>
      <trkpt lat="44.10778" lon="7.09277">
        <ele>1017</ele>
        <time>2012-07-08T12:59:57Z</time>
      </trkpt>
      <trkpt lat="44.10765" lon="7.09283">
        <ele>1017</ele>
        <time>2012-07-08T13:00:01Z</time>
      </trkpt>
      <trkpt lat="44.10758" lon="7.09292">
        <ele>1018</ele>
        <time>2012-07-08T13:00:04Z</time>
      </trkpt>
      <trkpt lat="44.1075" lon="7.09298">
        <ele>1018</ele>
        <time>2012-07-08T13:00:07Z</time>
      </trkpt>
      <trkpt lat="44.10734" lon="7.0932">
        <ele>1017</ele>
        <time>2012-07-08T13:00:15Z</time>
      </trkpt>
      <trkpt lat="44.10723" lon="7.09335">
        <ele>1018</ele>
        <time>2012-07-08T13:00:21Z</time>
      </trkpt>
      <trkpt lat="44.10718" lon="7.09343">
        <ele>1018</ele>
        <time>2012-07-08T13:00:24Z</time>
      </trkpt>
      <trkpt lat="44.10708" lon="7.09356">
        <ele>1018</ele>
        <time>2012-07-08T13:00:29Z</time>
      </trkpt>
      <trkpt lat="44.10703" lon="7.09363">
        <ele>1019</ele>
        <time>2012-07-08T13:00:32Z</time>
      </trkpt>
      <trkpt lat="44.10696" lon="7.09367">
        <ele>1019</ele>
        <time>2012-07-08T13:00:35Z</time>
      </trkpt>
      <trkpt lat="44.10689" lon="7.09371">
        <ele>1019</ele>
        <time>2012-07-08T13:00:39Z</time>
      </trkpt>
      <trkpt lat="44.10667" lon="7.09371">
        <ele>1020</ele>
        <time>2012-07-08T13:00:48Z</time>
      </trkpt>
      <trkpt lat="44.1066" lon="7.09367">
        <ele>1021</ele>
        <time>2012-07-08T13:00:51Z</time>
      </trkpt>
      <trkpt lat="44.1065" lon="7.09352">
        <ele>1021</ele>
        <time>2012-07-08T13:00:57Z</time>
      </trkpt>
      <trkpt lat="44.10647" lon="7.09343">
        <ele>1021</ele>
        <time>2012-07-08T13:01:00Z</time>
      </trkpt>
      <trkpt lat="44.10646" lon="7.09333">
        <ele>1022</ele>
        <time>2012-07-08T13:01:03Z</time>
      </trkpt>
      <trkpt lat="44.1064" lon="7.09316">
        <ele>1022</ele>
        <time>2012-07-08T13:01:09Z</time>
      </trkpt>
      <trkpt lat="44.10633" lon="7.09309">
        <ele>1023</ele>
        <time>2012-07-08T13:01:12Z</time>
      </trkpt>
      <trkpt lat="44.10626" lon="7.09307">
        <ele>1023</ele>
        <time>2012-07-08T13:01:15Z</time>
      </trkpt>
      <trkpt lat="44.10617" lon="7.09311">
        <ele>1023</ele>
        <time>2012-07-08T13:01:18Z</time>
      </trkpt>
      <trkpt lat="44.10549" lon="7.09386">
        <ele>1028</ele>
        <time>2012-07-08T13:01:49Z</time>
      </trkpt>
      <trkpt lat="44.10543" lon="7.09393">
        <ele>1028</ele>
        <time>2012-07-08T13:01:52Z</time>
      </trkpt>
      <trkpt lat="44.10527" lon="7.09416">
        <ele>1030</ele>
        <time>2012-07-08T13:02:01Z</time>
      </trkpt>
      <trkpt lat="44.1052" lon="7.09423">
        <ele>1030</ele>
        <time>2012-07-08T13:02:04Z</time>
      </trkpt>
      <trkpt lat="44.10514" lon="7.09427">
        <ele>1030</ele>
        <time>2012-07-08T13:02:07Z</time>
      </trkpt>
      <trkpt lat="44.10492" lon="7.09438">
        <ele>1032</ele>
        <time>2012-07-08T13:02:16Z</time>
      </trkpt>
      <trkpt lat="44.10484" lon="7.0944">
        <ele>1033</ele>
        <time>2012-07-08T13:02:19Z</time>
      </trkpt>
      <trkpt lat="44.10409" lon="7.09455">
        <ele>1039</ele>
        <time>2012-07-08T13:02:48Z</time>
      </trkpt>
      <trkpt lat="44.104" lon="7.09457">
        <ele>1040</ele>
        <time>2012-07-08T13:02:51Z</time>
      </trkpt>
      <trkpt lat="44.10386" lon="7.09455">
        <ele>1041</ele>
        <time>2012-07-08T13:02:57Z</time>
      </trkpt>
      <trkpt lat="44.10357" lon="7.09455">
        <ele>1043</ele>
        <time>2012-07-08T13:03:09Z</time>
      </trkpt>
      <trkpt lat="44.10326" lon="7.09453">
        <ele>1045</ele>
        <time>2012-07-08T13:03:21Z</time>
      </trkpt>
      <trkpt lat="44.10264" lon="7.09449">
        <ele>1050</ele>
        <time>2012-07-08T13:03:47Z</time>
      </trkpt>
      <trkpt lat="44.10247" lon="7.09457">
        <ele>1052</ele>
        <time>2012-07-08T13:03:53Z</time>
      </trkpt>
      <trkpt lat="44.10216" lon="7.09477">
        <ele>1053</ele>
        <time>2012-07-08T13:04:05Z</time>
      </trkpt>
      <trkpt lat="44.10208" lon="7.09483">
        <ele>1054</ele>
        <time>2012-07-08T13:04:08Z</time>
      </trkpt>
      <trkpt lat="44.10201" lon="7.09489">
        <ele>1054</ele>
        <time>2012-07-08T13:04:11Z</time>
      </trkpt>
      <trkpt lat="44.10187" lon="7.09498">
        <ele>1056</ele>
        <time>2012-07-08T13:04:17Z</time>
      </trkpt>
      <trkpt lat="44.1018" lon="7.095">
        <ele>1056</ele>
        <time>2012-07-08T13:04:20Z</time>
      </trkpt>
      <trkpt lat="44.10098" lon="7.095">
        <ele>1063</ele>
        <time>2012-07-08T13:04:49Z</time>
      </trkpt>
      <trkpt lat="44.10085" lon="7.095">
        <ele>1064</ele>
        <time>2012-07-08T13:04:53Z</time>
      </trkpt>
      <trkpt lat="44.10078" lon="7.095">
        <ele>1064</ele>
        <time>2012-07-08T13:04:55Z</time>
      </trkpt>
      <trkpt lat="44.10056" lon="7.09507">
        <ele>1066</ele>
        <time>2012-07-08T13:05:03Z</time>
      </trkpt>
      <trkpt lat="44.10041" lon="7.09507">
        <ele>1068</ele>
        <time>2012-07-08T13:05:09Z</time>
      </trkpt>
      <trkpt lat="44.10033" lon="7.09507">
        <ele>1068</ele>
        <time>2012-07-08T13:05:12Z</time>
      </trkpt>
      <trkpt lat="44.10026" lon="7.09507">
        <ele>1069</ele>
        <time>2012-07-08T13:05:15Z</time>
      </trkpt>
      <trkpt lat="44.10011" lon="7.09507">
        <ele>1070</ele>
        <time>2012-07-08T13:05:21Z</time>
      </trkpt>
      <trkpt lat="44.09938" lon="7.09487">
        <ele>1074</ele>
        <time>2012-07-08T13:05:51Z</time>
      </trkpt>
      <trkpt lat="44.09924" lon="7.09481">
        <ele>1074</ele>
        <time>2012-07-08T13:05:57Z</time>
      </trkpt>
      <trkpt lat="44.09916" lon="7.09479">
        <ele>1075</ele>
        <time>2012-07-08T13:06:00Z</time>
      </trkpt>
      <trkpt lat="44.09895" lon="7.09466">
        <ele>1076</ele>
        <time>2012-07-08T13:06:10Z</time>
      </trkpt>
      <trkpt lat="44.09881" lon="7.09462">
        <ele>1077</ele>
        <time>2012-07-08T13:06:17Z</time>
      </trkpt>
      <trkpt lat="44.09874" lon="7.09459">
        <ele>1078</ele>
        <time>2012-07-08T13:06:21Z</time>
      </trkpt>
      <trkpt lat="44.09826" lon="7.09481">
        <ele>1083</ele>
        <time>2012-07-08T13:06:47Z</time>
      </trkpt>
      <trkpt lat="44.09813" lon="7.09487">
        <ele>1085</ele>
        <time>2012-07-08T13:06:53Z</time>
      </trkpt>
      <trkpt lat="44.09807" lon="7.09492">
        <ele>1085</ele>
        <time>2012-07-08T13:06:56Z</time>
      </trkpt>
      <trkpt lat="44.09784" lon="7.09498">
        <ele>1087</ele>
        <time>2012-07-08T13:07:05Z</time>
      </trkpt>
      <trkpt lat="44.09776" lon="7.09496">
        <ele>1088</ele>
        <time>2012-07-08T13:07:08Z</time>
      </trkpt>
      <trkpt lat="44.09762" lon="7.09487">
        <ele>1089</ele>
        <time>2012-07-08T13:07:13Z</time>
      </trkpt>
      <trkpt lat="44.09748" lon="7.09481">
        <ele>1089</ele>
        <time>2012-07-08T13:07:19Z</time>
      </trkpt>
      <trkpt lat="44.09685" lon="7.09485">
        <ele>1093</ele>
        <time>2012-07-08T13:07:53Z</time>
      </trkpt>
      <trkpt lat="44.09678" lon="7.09487">
        <ele>1093</ele>
        <time>2012-07-08T13:07:56Z</time>
      </trkpt>
      <trkpt lat="44.09671" lon="7.09492">
        <ele>1093</ele>
        <time>2012-07-08T13:07:59Z</time>
      </trkpt>
      <trkpt lat="44.09658" lon="7.09502">
        <ele>1093</ele>
        <time>2012-07-08T13:08:05Z</time>
      </trkpt>
      <trkpt lat="44.0965" lon="7.09509">
        <ele>1093</ele>
        <time>2012-07-08T13:08:08Z</time>
      </trkpt>
      <trkpt lat="44.09643" lon="7.09513">
        <ele>1093</ele>
        <time>2012-07-08T13:08:11Z</time>
      </trkpt>
      <trkpt lat="44.09626" lon="7.09522">
        <ele>1094</ele>
        <time>2012-07-08T13:08:17Z</time>
      </trkpt>
      <trkpt lat="44.09612" lon="7.09522">
        <ele>1094</ele>
        <time>2012-07-08T13:08:21Z</time>
      </trkpt>
      <trkpt lat="44.09538" lon="7.09524">
        <ele>1100</ele>
        <time>2012-07-08T13:08:47Z</time>
      </trkpt>
      <trkpt lat="44.09522" lon="7.09532">
        <ele>1101</ele>
        <time>2012-07-08T13:08:53Z</time>
      </trkpt>
      <trkpt lat="44.09514" lon="7.09534">
        <ele>1101</ele>
        <time>2012-07-08T13:08:56Z</time>
      </trkpt>
      <trkpt lat="44.09499" lon="7.09541">
        <ele>1102</ele>
        <time>2012-07-08T13:09:01Z</time>
      </trkpt>
      <trkpt lat="44.09486" lon="7.09543">
        <ele>1104</ele>
        <time>2012-07-08T13:09:05Z</time>
      </trkpt>
      <trkpt lat="44.0948" lon="7.09545">
        <ele>1104</ele>
        <time>2012-07-08T13:09:07Z</time>
      </trkpt>
      <trkpt lat="44.09463" lon="7.09549">
        <ele>1106</ele>
        <time>2012-07-08T13:09:13Z</time>
      </trkpt>
      <trkpt lat="44.09455" lon="7.09549">
        <ele>1107</ele>
        <time>2012-07-08T13:09:16Z</time>
      </trkpt>
      <trkpt lat="44.09441" lon="7.09549">
        <ele>1108</ele>
        <time>2012-07-08T13:09:21Z</time>
      </trkpt>
      <trkpt lat="44.0939" lon="7.09496">
        <ele>1114</ele>
        <time>2012-07-08T13:09:48Z</time>
      </trkpt>
      <trkpt lat="44.09383" lon="7.09466">
        <ele>1115</ele>
        <time>2012-07-08T13:09:57Z</time>
      </trkpt>
      <trkpt lat="44.09381" lon="7.09444">
        <ele>1116</ele>
        <time>2012-07-08T13:10:03Z</time>
      </trkpt>
      <trkpt lat="44.09386" lon="7.09416">
        <ele>1117</ele>
        <time>2012-07-08T13:10:11Z</time>
      </trkpt>
      <trkpt lat="44.0939" lon="7.09408">
        <ele>1117</ele>
        <time>2012-07-08T13:10:14Z</time>
      </trkpt>
      <trkpt lat="44.0939" lon="7.09374">
        <ele>1119</ele>
        <time>2012-07-08T13:10:24Z</time>
      </trkpt>
      <trkpt lat="44.09338" lon="7.09339">
        <ele>1123</ele>
        <time>2012-07-08T13:10:48Z</time>
      </trkpt>
      <trkpt lat="44.09324" lon="7.09333">
        <ele>1124</ele>
        <time>2012-07-08T13:10:53Z</time>
      </trkpt>
      <trkpt lat="44.09316" lon="7.09326">
        <ele>1124</ele>
        <time>2012-07-08T13:10:56Z</time>
      </trkpt>
      <trkpt lat="44.09308" lon="7.0932">
        <ele>1124</ele>
        <time>2012-07-08T13:10:59Z</time>
      </trkpt>
      <trkpt lat="44.09296" lon="7.09307">
        <ele>1125</ele>
        <time>2012-07-08T13:11:04Z</time>
      </trkpt>
      <trkpt lat="44.09286" lon="7.09292">
        <ele>1125</ele>
        <time>2012-07-08T13:11:08Z</time>
      </trkpt>
      <trkpt lat="44.09275" lon="7.09279">
        <ele>1126</ele>
        <time>2012-07-08T13:11:12Z</time>
      </trkpt>
      <trkpt lat="44.09265" lon="7.09266">
        <ele>1127</ele>
        <time>2012-07-08T13:11:16Z</time>
      </trkpt>
      <trkpt lat="44.09257" lon="7.09251">
        <ele>1127</ele>
        <time>2012-07-08T13:11:20Z</time>
      </trkpt>
      <trkpt lat="44.09167" lon="7.09204">
        <ele>1131</ele>
        <time>2012-07-08T13:11:48Z</time>
      </trkpt>
      <trkpt lat="44.09153" lon="7.09191">
        <ele>1132</ele>
        <time>2012-07-08T13:11:53Z</time>
      </trkpt>
      <trkpt lat="44.09144" lon="7.09176">
        <ele>1132</ele>
        <time>2012-07-08T13:11:57Z</time>
      </trkpt>
      <trkpt lat="44.09135" lon="7.09163">
        <ele>1133</ele>
        <time>2012-07-08T13:12:01Z</time>
      </trkpt>
      <trkpt lat="44.09123" lon="7.0914">
        <ele>1134</ele>
        <time>2012-07-08T13:12:08Z</time>
      </trkpt>
      <trkpt lat="44.09121" lon="7.09127">
        <ele>1135</ele>
        <time>2012-07-08T13:12:11Z</time>
      </trkpt>
      <trkpt lat="44.09119" lon="7.09103">
        <ele>1135</ele>
        <time>2012-07-08T13:12:16Z</time>
      </trkpt>
      <trkpt lat="44.09118" lon="7.0909">
        <ele>1135</ele>
        <time>2012-07-08T13:12:19Z</time>
      </trkpt>
      <trkpt lat="44.09102" lon="7.08974">
        <ele>1136</ele>
        <time>2012-07-08T13:12:51Z</time>
      </trkpt>
      <trkpt lat="44.09088" lon="7.08959">
        <ele>1136</ele>
        <time>2012-07-08T13:12:57Z</time>
      </trkpt>
      <trkpt lat="44.09084" lon="7.08951">
        <ele>1136</ele>
        <time>2012-07-08T13:13:00Z</time>
      </trkpt>
      <trkpt lat="44.09076" lon="7.08936">
        <ele>1137</ele>
        <time>2012-07-08T13:13:05Z</time>
      </trkpt>
      <trkpt lat="44.09072" lon="7.08925">
        <ele>1137</ele>
        <time>2012-07-08T13:13:08Z</time>
      </trkpt>
      <trkpt lat="44.09065" lon="7.08908">
        <ele>1138</ele>
        <time>2012-07-08T13:13:13Z</time>
      </trkpt>
      <trkpt lat="44.09061" lon="7.08899">
        <ele>1138</ele>
        <time>2012-07-08T13:13:16Z</time>
      </trkpt>
      <trkpt lat="44.09056" lon="7.0888">
        <ele>1139</ele>
        <time>2012-07-08T13:13:21Z</time>
      </trkpt>
      <trkpt lat="44.09054" lon="7.08869">
        <ele>1139</ele>
        <time>2012-07-08T13:13:24Z</time>
      </trkpt>
      <trkpt lat="44.09026" lon="7.08777">
        <ele>1142</ele>
        <time>2012-07-08T13:13:48Z</time>
      </trkpt>
      <trkpt lat="44.09018" lon="7.08758">
        <ele>1142</ele>
        <time>2012-07-08T13:13:52Z</time>
      </trkpt>
      <trkpt lat="44.09004" lon="7.08751">
        <ele>1141</ele>
        <time>2012-07-08T13:13:56Z</time>
      </trkpt>
      <trkpt lat="44.08989" lon="7.08756">
        <ele>1140</ele>
        <time>2012-07-08T13:14:00Z</time>
      </trkpt>
      <trkpt lat="44.08973" lon="7.08764">
        <ele>1141</ele>
        <time>2012-07-08T13:14:04Z</time>
      </trkpt>
      <trkpt lat="44.08964" lon="7.08773">
        <ele>1142</ele>
        <time>2012-07-08T13:14:11Z</time>
      </trkpt>
      <trkpt lat="44.08962" lon="7.08783">
        <ele>1141</ele>
        <time>2012-07-08T13:14:14Z</time>
      </trkpt>
      <trkpt lat="44.08958" lon="7.08796">
        <ele>1141</ele>
        <time>2012-07-08T13:14:20Z</time>
      </trkpt>
      <trkpt lat="44.08958" lon="7.08796">
        <ele>1085.2</ele>
        <time>2012-07-08T13:14:31Z</time>
      </trkpt>
      <trkpt lat="44.08958" lon="7.08796">
        <ele>1085.2</ele>
        <time>2012-07-08T13:15:00Z</time>
      </trkpt>
      <trkpt lat="44.08958" lon="7.08796">
        <ele>1085.2</ele>
        <time>2012-07-08T13:15:11Z</time>
      </trkpt>
      <trkpt lat="44.08958" lon="7.08796">
        <ele>1085.2</ele>
        <time>2012-07-08T13:17:30Z</time>
      </trkpt>
      <trkpt lat="44.08958" lon="7.08796">
        <ele>1085.2</ele>
        <time>2012-07-08T13:18:04Z</time>
      </trkpt>
      <trkpt lat="44.08958" lon="7.08796">
        <ele>1085.2</ele>
        <time>2012-07-08T13:18:30Z</time>
      </trkpt>
      <trkpt lat="44.08949" lon="7.08798">
        <ele>1140</ele>
        <time>2012-07-08T13:18:38Z</time>
      </trkpt>
      <trkpt lat="44.08955" lon="7.08794">
        <ele>1140</ele>
        <time>2012-07-08T13:18:40Z</time>
      </trkpt>
      <trkpt lat="44.09017" lon="7.08807">
        <ele>1139</ele>
        <time>2012-07-08T13:19:09Z</time>
      </trkpt>
      <trkpt lat="44.0902" lon="7.08816">
        <ele>1138</ele>
        <time>2012-07-08T13:19:12Z</time>
      </trkpt>
      <trkpt lat="44.09018" lon="7.08839">
        <ele>1138</ele>
        <time>2012-07-08T13:19:18Z</time>
      </trkpt>
      <trkpt lat="44.09018" lon="7.08863">
        <ele>1139</ele>
        <time>2012-07-08T13:19:22Z</time>
      </trkpt>
      <trkpt lat="44.09023" lon="7.08869">
        <ele>1140</ele>
        <time>2012-07-08T13:19:30Z</time>
      </trkpt>
      <trkpt lat="44.09023" lon="7.08869">
        <ele>1066.5</ele>
        <time>2012-07-08T13:19:41Z</time>
      </trkpt>
      <trkpt lat="44.09023" lon="7.08869">
        <ele>1066.5</ele>
        <time>2012-07-08T13:22:39Z</time>
      </trkpt>
      <trkpt lat="44.09023" lon="7.08869">
        <ele>1066.5</ele>
        <time>2012-07-08T13:22:50Z</time>
      </trkpt>
      <trkpt lat="44.09023" lon="7.08869">
        <ele>1066.5</ele>
        <time>2012-07-08T13:23:40Z</time>
      </trkpt>
      <trkpt lat="44.09031" lon="7.08856">
        <ele>1141</ele>
        <time>2012-07-08T13:23:46Z</time>
      </trkpt>
      <trkpt lat="44.0903" lon="7.08846">
        <ele>1140</ele>
        <time>2012-07-08T13:23:56Z</time>
      </trkpt>
      <trkpt lat="44.09024" lon="7.0882">
        <ele>1139</ele>
        <time>2012-07-08T13:24:15Z</time>
      </trkpt>
      <trkpt lat="44.09022" lon="7.08811">
        <ele>1139</ele>
        <time>2012-07-08T13:24:20Z</time>
      </trkpt>
      <trkpt lat="44.09018" lon="7.08803">
        <ele>1139</ele>
        <time>2012-07-08T13:24:26Z</time>
      </trkpt>
      <trkpt lat="44.09018" lon="7.08803">
        <ele>1080.6</ele>
        <time>2012-07-08T13:24:37Z</time>
      </trkpt>
      <trkpt lat="44.09018" lon="7.08803">
        <ele>1080.6</ele>
        <time>2012-07-08T13:24:52Z</time>
      </trkpt>
      <trkpt lat="44.09006" lon="7.08777">
        <ele>1140</ele>
        <time>2012-07-08T13:25:01Z</time>
      </trkpt>
      <trkpt lat="44.08998" lon="7.08777">
        <ele>1140</ele>
        <time>2012-07-08T13:25:05Z</time>
      </trkpt>
      <trkpt lat="44.08992" lon="7.08777">
        <ele>1140</ele>
        <time>2012-07-08T13:25:08Z</time>
      </trkpt>
      <trkpt lat="44.08992" lon="7.08777">
        <ele>1083.8</ele>
        <time>2012-07-08T13:25:19Z</time>
      </trkpt>
      <trkpt lat="44.08992" lon="7.08777">
        <ele>1083.8</ele>
        <time>2012-07-08T13:26:05Z</time>
      </trkpt>
      <trkpt lat="44.08992" lon="7.08777">
        <ele>1083.8</ele>
        <time>2012-07-08T13:26:16Z</time>
      </trkpt>
      <trkpt lat="44.08992" lon="7.08777">
        <ele>1083.8</ele>
        <time>2012-07-08T13:28:46Z</time>
      </trkpt>
      <trkpt lat="44.08992" lon="7.08777">
        <ele>1083.8</ele>
        <time>2012-07-08T13:28:57Z</time>
      </trkpt>
      <trkpt lat="44.08992" lon="7.08777">
        <ele>1083.8</ele>
        <time>2012-07-08T13:32:27Z</time>
      </trkpt>
      <trkpt lat="44.08992" lon="7.08777">
        <ele>1083.8</ele>
        <time>2012-07-08T13:32:38Z</time>
      </trkpt>
      <trkpt lat="44.08992" lon="7.08777">
        <ele>1083.8</ele>
        <time>2012-07-08T13:34:13Z</time>
      </trkpt>
      <trkpt lat="44.08992" lon="7.08777">
        <ele>1083.8</ele>
        <time>2012-07-08T13:34:24Z</time>
      </trkpt>
      <trkpt lat="44.08992" lon="7.08777">
        <ele>1083.8</ele>
        <time>2012-07-08T13:35:14Z</time>
      </trkpt>
      <trkpt lat="44.08992" lon="7.08777">
        <ele>1083.8</ele>
        <time>2012-07-08T13:35:25Z</time>
      </trkpt>
      <trkpt lat="44.08992" lon="7.08777">
        <ele>1083.8</ele>
        <time>2012-07-08T13:37:47Z</time>
      </trkpt>
      <trkpt lat="44.08992" lon="7.08777">
        <ele>1083.8</ele>
        <time>2012-07-08T13:37:58Z</time>
      </trkpt>
      <trkpt lat="44.08992" lon="7.08777">
        <ele>1083.8</ele>
        <time>2012-07-08T13:38:02Z</time>
      </trkpt>
      <trkpt lat="44.08992" lon="7.08777">
        <ele>1083.8</ele>
        <time>2012-07-08T13:38:13Z</time>
      </trkpt>
      <trkpt lat="44.08992" lon="7.08777">
        <ele>1083.8</ele>
        <time>2012-07-08T13:38:40Z</time>
      </trkpt>
      <trkpt lat="44.08992" lon="7.08777">
        <ele>1083.8</ele>
        <time>2012-07-08T13:38:51Z</time>
      </trkpt>
      <trkpt lat="44.08992" lon="7.08777">
        <ele>1083.8</ele>
        <time>2012-07-08T13:39:24Z</time>
      </trkpt>
      <trkpt lat="44.09003" lon="7.08773">
        <ele>1151</ele>
        <time>2012-07-08T13:39:29Z</time>
      </trkpt>
      <trkpt lat="44.09001" lon="7.08762">
        <ele>1150</ele>
        <time>2012-07-08T13:39:36Z</time>
      </trkpt>
      <trkpt lat="44.08995" lon="7.08764">
        <ele>1150</ele>
        <time>2012-07-08T13:39:41Z</time>
      </trkpt>
      <trkpt lat="44.09008" lon="7.08783">
        <ele>1149</ele>
        <time>2012-07-08T13:39:46Z</time>
      </trkpt>
      <trkpt lat="44.0901" lon="7.08794">
        <ele>1149</ele>
        <time>2012-07-08T13:39:48Z</time>
      </trkpt>
      <trkpt lat="44.09015" lon="7.08826">
        <ele>1149</ele>
        <time>2012-07-08T13:39:54Z</time>
      </trkpt>
      <trkpt lat="44.09017" lon="7.0885">
        <ele>1150</ele>
        <time>2012-07-08T13:39:58Z</time>
      </trkpt>
      <trkpt lat="44.09017" lon="7.08878">
        <ele>1149</ele>
        <time>2012-07-08T13:40:02Z</time>
      </trkpt>
      <trkpt lat="44.09013" lon="7.08919">
        <ele>1148</ele>
        <time>2012-07-08T13:40:07Z</time>
      </trkpt>
      <trkpt lat="44.09011" lon="7.08942">
        <ele>1147</ele>
        <time>2012-07-08T13:40:11Z</time>
      </trkpt>
      <trkpt lat="44.09011" lon="7.08955">
        <ele>1146</ele>
        <time>2012-07-08T13:40:13Z</time>
      </trkpt>
      <trkpt lat="44.09006" lon="7.08977">
        <ele>1145</ele>
        <time>2012-07-08T13:40:18Z</time>
      </trkpt>
      <trkpt lat="44.09001" lon="7.08994">
        <ele>1145</ele>
        <time>2012-07-08T13:40:23Z</time>
      </trkpt>
      <trkpt lat="44.09004" lon="7.09019">
        <ele>1142</ele>
        <time>2012-07-08T13:40:27Z</time>
      </trkpt>
      <trkpt lat="44.09007" lon="7.09056">
        <ele>1139</ele>
        <time>2012-07-08T13:40:35Z</time>
      </trkpt>
      <trkpt lat="44.09018" lon="7.09069">
        <ele>1137</ele>
        <time>2012-07-08T13:40:39Z</time>
      </trkpt>
      <trkpt lat="44.09025" lon="7.09097">
        <ele>1132</ele>
        <time>2012-07-08T13:40:43Z</time>
      </trkpt>
      <trkpt lat="44.09026" lon="7.09114">
        <ele>1129</ele>
        <time>2012-07-08T13:40:45Z</time>
      </trkpt>
      <trkpt lat="44.09024" lon="7.09165">
        <ele>1125</ele>
        <time>2012-07-08T13:40:51Z</time>
      </trkpt>
      <trkpt lat="44.0903" lon="7.09187">
        <ele>1125</ele>
        <time>2012-07-08T13:40:54Z</time>
      </trkpt>
      <trkpt lat="44.09045" lon="7.09213">
        <ele>1125</ele>
        <time>2012-07-08T13:40:58Z</time>
      </trkpt>
      <trkpt lat="44.09057" lon="7.09258">
        <ele>1124</ele>
        <time>2012-07-08T13:41:03Z</time>
      </trkpt>
      <trkpt lat="44.09058" lon="7.09303">
        <ele>1122</ele>
        <time>2012-07-08T13:41:07Z</time>
      </trkpt>
      <trkpt lat="44.09051" lon="7.09339">
        <ele>1120</ele>
        <time>2012-07-08T13:41:11Z</time>
      </trkpt>
      <trkpt lat="44.09043" lon="7.09363">
        <ele>1118</ele>
        <time>2012-07-08T13:41:14Z</time>
      </trkpt>
      <trkpt lat="44.09043" lon="7.09363">
        <ele>1001</ele>
        <time>2012-07-08T13:41:25Z</time>
      </trkpt>
      <trkpt lat="44.09043" lon="7.09363">
        <ele>1001</ele>
        <time>2012-07-08T13:44:20Z</time>
      </trkpt>
      <trkpt lat="44.09043" lon="7.09369">
        <ele>1103</ele>
        <time>2012-07-08T13:44:26Z</time>
      </trkpt>
      <trkpt lat="44.09043" lon="7.09369">
        <ele>1001.7</ele>
        <time>2012-07-08T13:44:37Z</time>
      </trkpt>
      <trkpt lat="44.09043" lon="7.09369">
        <ele>1001.7</ele>
        <time>2012-07-08T13:52:15Z</time>
      </trkpt>
      <trkpt lat="44.09038" lon="7.09401">
        <ele>1070</ele>
        <time>2012-07-08T13:52:19Z</time>
      </trkpt>
      <trkpt lat="44.09039" lon="7.09414">
        <ele>1068</ele>
        <time>2012-07-08T13:52:21Z</time>
      </trkpt>
      <trkpt lat="44.09052" lon="7.09468">
        <ele>1064</ele>
        <time>2012-07-08T13:52:28Z</time>
      </trkpt>
      <trkpt lat="44.09055" lon="7.09509">
        <ele>1063</ele>
        <time>2012-07-08T13:52:32Z</time>
      </trkpt>
      <trkpt lat="44.09074" lon="7.09547">
        <ele>1063</ele>
        <time>2012-07-08T13:52:36Z</time>
      </trkpt>
      <trkpt lat="44.09087" lon="7.09569">
        <ele>1063</ele>
        <time>2012-07-08T13:52:40Z</time>
      </trkpt>
      <trkpt lat="44.09095" lon="7.09573">
        <ele>1062</ele>
        <time>2012-07-08T13:52:43Z</time>
      </trkpt>
      <trkpt lat="44.0909" lon="7.0958">
        <ele>1062</ele>
        <time>2012-07-08T13:52:48Z</time>
      </trkpt>
      <trkpt lat="44.09074" lon="7.09571">
        <ele>1059</ele>
        <time>2012-07-08T13:52:52Z</time>
      </trkpt>
      <trkpt lat="44.09043" lon="7.09558">
        <ele>1057</ele>
        <time>2012-07-08T13:53:03Z</time>
      </trkpt>
      <trkpt lat="44.0903" lon="7.09545">
        <ele>1056</ele>
        <time>2012-07-08T13:53:08Z</time>
      </trkpt>
      <trkpt lat="44.09018" lon="7.09528">
        <ele>1053</ele>
        <time>2012-07-08T13:53:12Z</time>
      </trkpt>
      <trkpt lat="44.09014" lon="7.09517">
        <ele>1050</ele>
        <time>2012-07-08T13:53:14Z</time>
      </trkpt>
      <trkpt lat="44.09002" lon="7.09487">
        <ele>1046</ele>
        <time>2012-07-08T13:53:20Z</time>
      </trkpt>
      <trkpt lat="44.08997" lon="7.09468">
        <ele>1046</ele>
        <time>2012-07-08T13:53:24Z</time>
      </trkpt>
      <trkpt lat="44.08994" lon="7.09459">
        <ele>1045</ele>
        <time>2012-07-08T13:53:26Z</time>
      </trkpt>
      <trkpt lat="44.08988" lon="7.09453">
        <ele>1045</ele>
        <time>2012-07-08T13:53:29Z</time>
      </trkpt>
      <trkpt lat="44.08982" lon="7.09442">
        <ele>1045</ele>
        <time>2012-07-08T13:53:34Z</time>
      </trkpt>
      <trkpt lat="44.08982" lon="7.09442">
        <ele>965.1</ele>
        <time>2012-07-08T13:53:45Z</time>
      </trkpt>
      <trkpt lat="44.08982" lon="7.09442">
        <ele>965.1</ele>
        <time>2012-07-08T13:53:48Z</time>
      </trkpt>
      <trkpt lat="44.08965" lon="7.09494">
        <ele>1039</ele>
        <time>2012-07-08T13:53:51Z</time>
      </trkpt>
      <trkpt lat="44.08968" lon="7.09524">
        <ele>1036</ele>
        <time>2012-07-08T13:53:55Z</time>
      </trkpt>
      <trkpt lat="44.08976" lon="7.09556">
        <ele>1035</ele>
        <time>2012-07-08T13:53:59Z</time>
      </trkpt>
      <trkpt lat="44.08981" lon="7.09573">
        <ele>1035</ele>
        <time>2012-07-08T13:54:01Z</time>
      </trkpt>
      <trkpt lat="44.08999" lon="7.09599">
        <ele>1035</ele>
        <time>2012-07-08T13:54:07Z</time>
      </trkpt>
      <trkpt lat="44.09031" lon="7.09629">
        <ele>1031</ele>
        <time>2012-07-08T13:54:15Z</time>
      </trkpt>
      <trkpt lat="44.09038" lon="7.09637">
        <ele>1031</ele>
        <time>2012-07-08T13:54:17Z</time>
      </trkpt>
      <trkpt lat="44.09016" lon="7.09631">
        <ele>1023</ele>
        <time>2012-07-08T13:54:26Z</time>
      </trkpt>
      <trkpt lat="44.09006" lon="7.09627">
        <ele>1021</ele>
        <time>2012-07-08T13:54:28Z</time>
      </trkpt>
      <trkpt lat="44.08973" lon="7.09618">
        <ele>1018</ele>
        <time>2012-07-08T13:54:34Z</time>
      </trkpt>
      <trkpt lat="44.08963" lon="7.09618">
        <ele>1017</ele>
        <time>2012-07-08T13:54:36Z</time>
      </trkpt>
      <trkpt lat="44.08939" lon="7.09607">
        <ele>1016</ele>
        <time>2012-07-08T13:54:44Z</time>
      </trkpt>
      <trkpt lat="44.0892" lon="7.09577">
        <ele>1007</ele>
        <time>2012-07-08T13:54:50Z</time>
      </trkpt>
      <trkpt lat="44.08909" lon="7.09537">
        <ele>1002</ele>
        <time>2012-07-08T13:54:55Z</time>
      </trkpt>
      <trkpt lat="44.08897" lon="7.09502">
        <ele>999</ele>
        <time>2012-07-08T13:54:59Z</time>
      </trkpt>
      <trkpt lat="44.08895" lon="7.09494">
        <ele>999</ele>
        <time>2012-07-08T13:55:00Z</time>
      </trkpt>
      <trkpt lat="44.08898" lon="7.09455">
        <ele>996</ele>
        <time>2012-07-08T13:55:06Z</time>
      </trkpt>
      <trkpt lat="44.089" lon="7.09416">
        <ele>995</ele>
        <time>2012-07-08T13:55:12Z</time>
      </trkpt>
      <trkpt lat="44.08894" lon="7.09423">
        <ele>994</ele>
        <time>2012-07-08T13:55:18Z</time>
      </trkpt>
      <trkpt lat="44.08888" lon="7.0944">
        <ele>992</ele>
        <time>2012-07-08T13:55:22Z</time>
      </trkpt>
      <trkpt lat="44.0888" lon="7.09462">
        <ele>987</ele>
        <time>2012-07-08T13:55:26Z</time>
      </trkpt>
      <trkpt lat="44.0887" lon="7.09483">
        <ele>981</ele>
        <time>2012-07-08T13:55:30Z</time>
      </trkpt>
      <trkpt lat="44.08854" lon="7.09507">
        <ele>975</ele>
        <time>2012-07-08T13:55:41Z</time>
      </trkpt>
      <trkpt lat="44.0885" lon="7.09526">
        <ele>970</ele>
        <time>2012-07-08T13:55:46Z</time>
      </trkpt>
      <trkpt lat="44.08832" lon="7.09558">
        <ele>965</ele>
        <time>2012-07-08T13:55:51Z</time>
      </trkpt>
      <trkpt lat="44.08829" lon="7.09586">
        <ele>963</ele>
        <time>2012-07-08T13:55:55Z</time>
      </trkpt>
      <trkpt lat="44.08835" lon="7.09597">
        <ele>961</ele>
        <time>2012-07-08T13:55:57Z</time>
      </trkpt>
      <trkpt lat="44.08838" lon="7.09605">
        <ele>960</ele>
        <time>2012-07-08T13:56:00Z</time>
      </trkpt>
      <trkpt lat="44.08838" lon="7.09605">
        <ele>869.2</ele>
        <time>2012-07-08T13:56:11Z</time>
      </trkpt>
      <trkpt lat="44.08838" lon="7.09605">
        <ele>869.2</ele>
        <time>2012-07-08T13:56:15Z</time>
      </trkpt>
      <trkpt lat="44.08854" lon="7.09637">
        <ele>957</ele>
        <time>2012-07-08T13:56:18Z</time>
      </trkpt>
      <trkpt lat="44.08866" lon="7.09657">
        <ele>950</ele>
        <time>2012-07-08T13:56:22Z</time>
      </trkpt>
      <trkpt lat="44.08869" lon="7.09672">
        <ele>948</ele>
        <time>2012-07-08T13:56:24Z</time>
      </trkpt>
      <trkpt lat="44.0884" lon="7.09674">
        <ele>949</ele>
        <time>2012-07-08T13:56:35Z</time>
      </trkpt>
      <trkpt lat="44.08809" lon="7.09648">
        <ele>940</ele>
        <time>2012-07-08T13:56:39Z</time>
      </trkpt>
      <trkpt lat="44.08785" lon="7.09625">
        <ele>933</ele>
        <time>2012-07-08T13:56:43Z</time>
      </trkpt>
      <trkpt lat="44.08771" lon="7.09601">
        <ele>928</ele>
        <time>2012-07-08T13:56:47Z</time>
      </trkpt>
      <trkpt lat="44.08768" lon="7.09592">
        <ele>926</ele>
        <time>2012-07-08T13:56:48Z</time>
      </trkpt>
      <trkpt lat="44.08782" lon="7.09524">
        <ele>922</ele>
        <time>2012-07-08T13:56:55Z</time>
      </trkpt>
      <trkpt lat="44.0879" lon="7.09507">
        <ele>921</ele>
        <time>2012-07-08T13:56:57Z</time>
      </trkpt>
      <trkpt lat="44.08812" lon="7.09451">
        <ele>921</ele>
        <time>2012-07-08T13:57:03Z</time>
      </trkpt>
      <trkpt lat="44.08812" lon="7.09404">
        <ele>918</ele>
        <time>2012-07-08T13:57:07Z</time>
      </trkpt>
      <trkpt lat="44.08811" lon="7.09382">
        <ele>917</ele>
        <time>2012-07-08T13:57:10Z</time>
      </trkpt>
      <trkpt lat="44.08807" lon="7.09395">
        <ele>912</ele>
        <time>2012-07-08T13:57:15Z</time>
      </trkpt>
      <trkpt lat="44.08803" lon="7.09416">
        <ele>906</ele>
        <time>2012-07-08T13:57:18Z</time>
      </trkpt>
      <trkpt lat="44.08787" lon="7.09457">
        <ele>898</ele>
        <time>2012-07-08T13:57:23Z</time>
      </trkpt>
      <trkpt lat="44.08777" lon="7.09474">
        <ele>894</ele>
        <time>2012-07-08T13:57:25Z</time>
      </trkpt>
      <trkpt lat="44.0875" lon="7.09515">
        <ele>886</ele>
        <time>2012-07-08T13:57:30Z</time>
      </trkpt>
      <trkpt lat="44.08726" lon="7.09543">
        <ele>880</ele>
        <time>2012-07-08T13:57:35Z</time>
      </trkpt>
      <trkpt lat="44.08708" lon="7.09582">
        <ele>875</ele>
        <time>2012-07-08T13:57:39Z</time>
      </trkpt>
      <trkpt lat="44.0868" lon="7.09612">
        <ele>871</ele>
        <time>2012-07-08T13:57:43Z</time>
      </trkpt>
      <trkpt lat="44.08662" lon="7.09642">
        <ele>867</ele>
        <time>2012-07-08T13:57:47Z</time>
      </trkpt>
      <trkpt lat="44.08642" lon="7.09676">
        <ele>864</ele>
        <time>2012-07-08T13:57:51Z</time>
      </trkpt>
      <trkpt lat="44.08629" lon="7.09691">
        <ele>862</ele>
        <time>2012-07-08T13:57:54Z</time>
      </trkpt>
      <trkpt lat="44.08618" lon="7.09715">
        <ele>860</ele>
        <time>2012-07-08T13:57:58Z</time>
      </trkpt>
      <trkpt lat="44.0862" lon="7.09723">
        <ele>859</ele>
        <time>2012-07-08T13:58:00Z</time>
      </trkpt>
      <trkpt lat="44.0862" lon="7.09723">
        <ele>770.1</ele>
        <time>2012-07-08T13:58:11Z</time>
      </trkpt>
      <trkpt lat="44.0862" lon="7.09723">
        <ele>770.1</ele>
        <time>2012-07-08T13:58:13Z</time>
      </trkpt>
      <trkpt lat="44.08633" lon="7.09775">
        <ele>844</ele>
        <time>2012-07-08T13:58:24Z</time>
      </trkpt>
      <trkpt lat="44.08644" lon="7.0979">
        <ele>841</ele>
        <time>2012-07-08T13:58:28Z</time>
      </trkpt>
      <trkpt lat="44.08649" lon="7.09811">
        <ele>838</ele>
        <time>2012-07-08T13:58:32Z</time>
      </trkpt>
      <trkpt lat="44.08649" lon="7.09811">
        <ele>752.6</ele>
        <time>2012-07-08T13:58:43Z</time>
      </trkpt>
      <trkpt lat="44.08649" lon="7.09811">
        <ele>752.6</ele>
        <time>2012-07-08T13:58:45Z</time>
      </trkpt>
      <trkpt lat="44.08642" lon="7.09854">
        <ele>834</ele>
        <time>2012-07-08T13:58:55Z</time>
      </trkpt>
      <trkpt lat="44.08644" lon="7.09878">
        <ele>831</ele>
        <time>2012-07-08T13:58:59Z</time>
      </trkpt>
      <trkpt lat="44.0865" lon="7.09895">
        <ele>829</ele>
        <time>2012-07-08T13:59:03Z</time>
      </trkpt>
      <trkpt lat="44.0865" lon="7.09895">
        <ele>721.3</ele>
        <time>2012-07-08T13:59:14Z</time>
      </trkpt>
      <trkpt lat="44.0865" lon="7.09895">
        <ele>721.3</ele>
        <time>2012-07-08T13:59:28Z</time>
      </trkpt>
      <trkpt lat="44.08675" lon="7.09936">
        <ele>818</ele>
        <time>2012-07-08T13:59:32Z</time>
      </trkpt>
      <trkpt lat="44.08684" lon="7.09955">
        <ele>812</ele>
        <time>2012-07-08T13:59:36Z</time>
      </trkpt>
      <trkpt lat="44.08689" lon="7.09981">
        <ele>806</ele>
        <time>2012-07-08T13:59:41Z</time>
      </trkpt>
      <trkpt lat="44.08689" lon="7.09981">
        <ele>692.1</ele>
        <time>2012-07-08T13:59:52Z</time>
      </trkpt>
      <trkpt lat="44.08689" lon="7.09981">
        <ele>692.1</ele>
        <time>2012-07-08T13:59:53Z</time>
      </trkpt>
      <trkpt lat="44.08689" lon="7.09981">
        <ele>692.1</ele>
        <time>2012-07-08T14:00:04Z</time>
      </trkpt>
      <trkpt lat="44.08689" lon="7.09981">
        <ele>692.1</ele>
        <time>2012-07-08T14:00:08Z</time>
      </trkpt>
      <trkpt lat="44.08675" lon="7.10039">
        <ele>776</ele>
        <time>2012-07-08T14:00:10Z</time>
      </trkpt>
      <trkpt lat="44.08683" lon="7.10064">
        <ele>769</ele>
        <time>2012-07-08T14:00:14Z</time>
      </trkpt>
      <trkpt lat="44.08682" lon="7.10097">
        <ele>765</ele>
        <time>2012-07-08T14:00:20Z</time>
      </trkpt>
      <trkpt lat="44.08677" lon="7.10103">
        <ele>765</ele>
        <time>2012-07-08T14:00:24Z</time>
      </trkpt>
      <trkpt lat="44.08683" lon="7.10112">
        <ele>764</ele>
        <time>2012-07-08T14:00:29Z</time>
      </trkpt>
      <trkpt lat="44.08693" lon="7.10125">
        <ele>762</ele>
        <time>2012-07-08T14:00:33Z</time>
      </trkpt>
      <trkpt lat="44.08706" lon="7.10127">
        <ele>761</ele>
        <time>2012-07-08T14:00:37Z</time>
      </trkpt>
      <trkpt lat="44.0873" lon="7.10114">
        <ele>757</ele>
        <time>2012-07-08T14:00:46Z</time>
      </trkpt>
      <trkpt lat="44.0873" lon="7.10114">
        <ele>662.4</ele>
        <time>2012-07-08T14:00:57Z</time>
      </trkpt>
      <trkpt lat="44.0873" lon="7.10114">
        <ele>662.4</ele>
        <time>2012-07-08T14:00:58Z</time>
      </trkpt>
      <trkpt lat="44.08761" lon="7.1009">
        <ele>752</ele>
        <time>2012-07-08T14:01:00Z</time>
      </trkpt>
      <trkpt lat="44.08774" lon="7.1009">
        <ele>750</ele>
        <time>2012-07-08T14:01:05Z</time>
      </trkpt>
      <trkpt lat="44.08789" lon="7.10099">
        <ele>748</ele>
        <time>2012-07-08T14:01:11Z</time>
      </trkpt>
      <trkpt lat="44.08796" lon="7.10105">
        <ele>747</ele>
        <time>2012-07-08T14:01:14Z</time>
      </trkpt>
      <trkpt lat="44.08803" lon="7.1011">
        <ele>746</ele>
        <time>2012-07-08T14:01:17Z</time>
      </trkpt>
      <trkpt lat="44.08816" lon="7.10125">
        <ele>745</ele>
        <time>2012-07-08T14:01:22Z</time>
      </trkpt>
      <trkpt lat="44.08824" lon="7.10142">
        <ele>744</ele>
        <time>2012-07-08T14:01:26Z</time>
      </trkpt>
      <trkpt lat="44.08833" lon="7.10157">
        <ele>743</ele>
        <time>2012-07-08T14:01:30Z</time>
      </trkpt>
      <trkpt lat="44.08848" lon="7.10178">
        <ele>741</ele>
        <time>2012-07-08T14:01:38Z</time>
      </trkpt>
      <trkpt lat="44.08863" lon="7.1018">
        <ele>740</ele>
        <time>2012-07-08T14:01:43Z</time>
      </trkpt>
      <trkpt lat="44.0887" lon="7.10182">
        <ele>739</ele>
        <time>2012-07-08T14:01:46Z</time>
      </trkpt>
      <trkpt lat="44.08878" lon="7.10182">
        <ele>739</ele>
        <time>2012-07-08T14:01:49Z</time>
      </trkpt>
      <trkpt lat="44.08885" lon="7.10197">
        <ele>738</ele>
        <time>2012-07-08T14:01:54Z</time>
      </trkpt>
      <trkpt lat="44.08895" lon="7.10213">
        <ele>738</ele>
        <time>2012-07-08T14:01:58Z</time>
      </trkpt>
      <trkpt lat="44.08905" lon="7.1023">
        <ele>737</ele>
        <time>2012-07-08T14:02:02Z</time>
      </trkpt>
      <trkpt lat="44.08912" lon="7.10249">
        <ele>737</ele>
        <time>2012-07-08T14:02:07Z</time>
      </trkpt>
      <trkpt lat="44.08921" lon="7.10283">
        <ele>736</ele>
        <time>2012-07-08T14:02:15Z</time>
      </trkpt>
      <trkpt lat="44.08923" lon="7.10294">
        <ele>735</ele>
        <time>2012-07-08T14:02:17Z</time>
      </trkpt>
      <trkpt lat="44.08924" lon="7.10333">
        <ele>735</ele>
        <time>2012-07-08T14:02:26Z</time>
      </trkpt>
      <trkpt lat="44.08929" lon="7.1035">
        <ele>735</ele>
        <time>2012-07-08T14:02:30Z</time>
      </trkpt>
      <trkpt lat="44.08937" lon="7.10367">
        <ele>734</ele>
        <time>2012-07-08T14:02:34Z</time>
      </trkpt>
      <trkpt lat="44.08937" lon="7.10367">
        <ele>645.1</ele>
        <time>2012-07-08T14:02:46Z</time>
      </trkpt>
      <trkpt lat="44.08937" lon="7.10367">
        <ele>645.1</ele>
        <time>2012-07-08T14:02:54Z</time>
      </trkpt>
      <trkpt lat="44.08937" lon="7.10367">
        <ele>645.1</ele>
        <time>2012-07-08T14:03:05Z</time>
      </trkpt>
      <trkpt lat="44.08937" lon="7.10367">
        <ele>645.1</ele>
        <time>2012-07-08T14:03:18Z</time>
      </trkpt>
      <trkpt lat="44.08937" lon="7.10367">
        <ele>645.1</ele>
        <time>2012-07-08T14:03:30Z</time>
      </trkpt>
      <trkpt lat="44.08937" lon="7.10367">
        <ele>645.1</ele>
        <time>2012-07-08T14:03:41Z</time>
      </trkpt>
      <trkpt lat="44.08937" lon="7.10367">
        <ele>645.1</ele>
        <time>2012-07-08T14:03:52Z</time>
      </trkpt>
      <trkpt lat="44.08937" lon="7.10367">
        <ele>645.1</ele>
        <time>2012-07-08T14:03:54Z</time>
      </trkpt>
      <trkpt lat="44.08958" lon="7.10414">
        <ele>733</ele>
        <time>2012-07-08T14:03:57Z</time>
      </trkpt>
      <trkpt lat="44.08952" lon="7.10416">
        <ele>732</ele>
        <time>2012-07-08T14:04:02Z</time>
      </trkpt>
      <trkpt lat="44.08947" lon="7.10425">
        <ele>732</ele>
        <time>2012-07-08T14:04:05Z</time>
      </trkpt>
      <trkpt lat="44.08947" lon="7.10425">
        <ele>636.5</ele>
        <time>2012-07-08T14:04:16Z</time>
      </trkpt>
      <trkpt lat="44.08947" lon="7.10425">
        <ele>636.5</ele>
        <time>2012-07-08T14:04:22Z</time>
      </trkpt>
      <trkpt lat="44.08952" lon="7.10461">
        <ele>728</ele>
        <time>2012-07-08T14:04:29Z</time>
      </trkpt>
      <trkpt lat="44.08952" lon="7.10461">
        <ele>628.2</ele>
        <time>2012-07-08T14:04:40Z</time>
      </trkpt>
      <trkpt lat="44.08952" lon="7.10461">
        <ele>628.2</ele>
        <time>2012-07-08T14:04:46Z</time>
      </trkpt>
      <trkpt lat="44.08964" lon="7.10485">
        <ele>722</ele>
        <time>2012-07-08T14:04:52Z</time>
      </trkpt>
      <trkpt lat="44.0897" lon="7.10489">
        <ele>720</ele>
        <time>2012-07-08T14:04:57Z</time>
      </trkpt>
      <trkpt lat="44.08977" lon="7.10491">
        <ele>720</ele>
        <time>2012-07-08T14:04:59Z</time>
      </trkpt>
      <trkpt lat="44.08997" lon="7.10489">
        <ele>717</ele>
        <time>2012-07-08T14:05:05Z</time>
      </trkpt>
      <trkpt lat="44.09011" lon="7.10485">
        <ele>716</ele>
        <time>2012-07-08T14:05:09Z</time>
      </trkpt>
      <trkpt lat="44.09024" lon="7.10483">
        <ele>713</ele>
        <time>2012-07-08T14:05:14Z</time>
      </trkpt>
      <trkpt lat="44.09028" lon="7.10489">
        <ele>709</ele>
        <time>2012-07-08T14:05:21Z</time>
      </trkpt>
      <trkpt lat="44.09013" lon="7.10511">
        <ele>704</ele>
        <time>2012-07-08T14:05:32Z</time>
      </trkpt>
      <trkpt lat="44.09008" lon="7.10517">
        <ele>703</ele>
        <time>2012-07-08T14:05:35Z</time>
      </trkpt>
      <trkpt lat="44.09009" lon="7.10528">
        <ele>700</ele>
        <time>2012-07-08T14:05:40Z</time>
      </trkpt>
      <trkpt lat="44.09027" lon="7.10532">
        <ele>692</ele>
        <time>2012-07-08T14:05:45Z</time>
      </trkpt>
      <trkpt lat="44.09027" lon="7.10532">
        <ele>587</ele>
        <time>2012-07-08T14:05:56Z</time>
      </trkpt>
      <trkpt lat="44.09027" lon="7.10532">
        <ele>587</ele>
        <time>2012-07-08T14:06:04Z</time>
      </trkpt>
      <trkpt lat="44.09027" lon="7.10532">
        <ele>587</ele>
        <time>2012-07-08T14:06:15Z</time>
      </trkpt>
      <trkpt lat="44.09027" lon="7.10532">
        <ele>587</ele>
        <time>2012-07-08T14:06:30Z</time>
      </trkpt>
      <trkpt lat="44.08987" lon="7.1064">
        <ele>706</ele>
        <time>2012-07-08T14:06:34Z</time>
      </trkpt>
      <trkpt lat="44.08987" lon="7.1065">
        <ele>708</ele>
        <time>2012-07-08T14:06:41Z</time>
      </trkpt>
      <trkpt lat="44.08993" lon="7.10667">
        <ele>710</ele>
        <time>2012-07-08T14:06:49Z</time>
      </trkpt>
      <trkpt lat="44.08997" lon="7.10678">
        <ele>711</ele>
        <time>2012-07-08T14:06:52Z</time>
      </trkpt>
      <trkpt lat="44.09001" lon="7.10685">
        <ele>712</ele>
        <time>2012-07-08T14:06:54Z</time>
      </trkpt>
      <trkpt lat="44.09008" lon="7.10704">
        <ele>714</ele>
        <time>2012-07-08T14:07:01Z</time>
      </trkpt>
      <trkpt lat="44.0901" lon="7.10712">
        <ele>714</ele>
        <time>2012-07-08T14:07:05Z</time>
      </trkpt>
      <trkpt lat="44.0901" lon="7.10723">
        <ele>716</ele>
        <time>2012-07-08T14:07:11Z</time>
      </trkpt>
      <trkpt lat="44.08997" lon="7.10734">
        <ele>718</ele>
        <time>2012-07-08T14:07:21Z</time>
      </trkpt>
      <trkpt lat="44.08978" lon="7.10736">
        <ele>719</ele>
        <time>2012-07-08T14:07:25Z</time>
      </trkpt>
      <trkpt lat="44.08963" lon="7.1074">
        <ele>721</ele>
        <time>2012-07-08T14:07:29Z</time>
      </trkpt>
      <trkpt lat="44.08944" lon="7.10751">
        <ele>726</ele>
        <time>2012-07-08T14:07:33Z</time>
      </trkpt>
      <trkpt lat="44.08935" lon="7.10753">
        <ele>726</ele>
        <time>2012-07-08T14:07:36Z</time>
      </trkpt>
      <trkpt lat="44.08922" lon="7.10753">
        <ele>727</ele>
        <time>2012-07-08T14:07:41Z</time>
      </trkpt>
      <trkpt lat="44.08906" lon="7.10753">
        <ele>727</ele>
        <time>2012-07-08T14:07:45Z</time>
      </trkpt>
      <trkpt lat="44.08889" lon="7.10753">
        <ele>727</ele>
        <time>2012-07-08T14:07:49Z</time>
      </trkpt>
      <trkpt lat="44.08856" lon="7.10749">
        <ele>725</ele>
        <time>2012-07-08T14:08:00Z</time>
      </trkpt>
      <trkpt lat="44.08848" lon="7.1074">
        <ele>724</ele>
        <time>2012-07-08T14:08:03Z</time>
      </trkpt>
      <trkpt lat="44.08842" lon="7.1073">
        <ele>723</ele>
        <time>2012-07-08T14:08:07Z</time>
      </trkpt>
      <trkpt lat="44.08842" lon="7.1073">
        <ele>516.2</ele>
        <time>2012-07-08T14:08:18Z</time>
      </trkpt>
      <trkpt lat="44.08842" lon="7.1073">
        <ele>516.2</ele>
        <time>2012-07-08T14:08:23Z</time>
      </trkpt>
      <trkpt lat="44.0884" lon="7.10685">
        <ele>690</ele>
        <time>2012-07-08T14:08:33Z</time>
      </trkpt>
      <trkpt lat="44.08807" lon="7.1067">
        <ele>655</ele>
        <time>2012-07-08T14:08:42Z</time>
      </trkpt>
      <trkpt lat="44.08801" lon="7.10646">
        <ele>634</ele>
        <time>2012-07-08T14:08:45Z</time>
      </trkpt>
      <trkpt lat="44.08795" lon="7.1062">
        <ele>619</ele>
        <time>2012-07-08T14:08:49Z</time>
      </trkpt>
      <trkpt lat="44.08789" lon="7.10597">
        <ele>611</ele>
        <time>2012-07-08T14:08:53Z</time>
      </trkpt>
      <trkpt lat="44.08782" lon="7.10579">
        <ele>611</ele>
        <time>2012-07-08T14:08:57Z</time>
      </trkpt>
      <trkpt lat="44.08772" lon="7.10564">
        <ele>610</ele>
        <time>2012-07-08T14:09:01Z</time>
      </trkpt>
      <trkpt lat="44.08762" lon="7.10552">
        <ele>609</ele>
        <time>2012-07-08T14:09:05Z</time>
      </trkpt>
      <trkpt lat="44.08753" lon="7.10537">
        <ele>609</ele>
        <time>2012-07-08T14:09:09Z</time>
      </trkpt>
      <trkpt lat="44.08743" lon="7.10519">
        <ele>608</ele>
        <time>2012-07-08T14:09:14Z</time>
      </trkpt>
      <trkpt lat="44.08735" lon="7.10511">
        <ele>607</ele>
        <time>2012-07-08T14:09:17Z</time>
      </trkpt>
      <trkpt lat="44.08724" lon="7.10498">
        <ele>607</ele>
        <time>2012-07-08T14:09:21Z</time>
      </trkpt>
      <trkpt lat="44.08712" lon="7.10485">
        <ele>606</ele>
        <time>2012-07-08T14:09:25Z</time>
      </trkpt>
      <trkpt lat="44.08699" lon="7.10472">
        <ele>605</ele>
        <time>2012-07-08T14:09:29Z</time>
      </trkpt>
      <trkpt lat="44.08686" lon="7.10461">
        <ele>604</ele>
        <time>2012-07-08T14:09:33Z</time>
      </trkpt>
      <trkpt lat="44.08676" lon="7.10455">
        <ele>603</ele>
        <time>2012-07-08T14:09:36Z</time>
      </trkpt>
      <trkpt lat="44.08661" lon="7.10446">
        <ele>602</ele>
        <time>2012-07-08T14:09:41Z</time>
      </trkpt>
      <trkpt lat="44.08642" lon="7.10444">
        <ele>602</ele>
        <time>2012-07-08T14:09:47Z</time>
      </trkpt>
      <trkpt lat="44.08621" lon="7.10438">
        <ele>604</ele>
        <time>2012-07-08T14:09:55Z</time>
      </trkpt>
      <trkpt lat="44.08584" lon="7.10449">
        <ele>608</ele>
        <time>2012-07-08T14:10:06Z</time>
      </trkpt>
      <trkpt lat="44.08568" lon="7.10472">
        <ele>606</ele>
        <time>2012-07-08T14:10:10Z</time>
      </trkpt>
      <trkpt lat="44.08554" lon="7.10494">
        <ele>602</ele>
        <time>2012-07-08T14:10:14Z</time>
      </trkpt>
      <trkpt lat="44.08541" lon="7.10506">
        <ele>599</ele>
        <time>2012-07-08T14:10:17Z</time>
      </trkpt>
      <trkpt lat="44.08522" lon="7.10519">
        <ele>596</ele>
        <time>2012-07-08T14:10:21Z</time>
      </trkpt>
      <trkpt lat="44.085" lon="7.10519">
        <ele>593</ele>
        <time>2012-07-08T14:10:25Z</time>
      </trkpt>
      <trkpt lat="44.08485" lon="7.10511">
        <ele>592</ele>
        <time>2012-07-08T14:10:29Z</time>
      </trkpt>
      <trkpt lat="44.08471" lon="7.10504">
        <ele>592</ele>
        <time>2012-07-08T14:10:34Z</time>
      </trkpt>
      <trkpt lat="44.08456" lon="7.10506">
        <ele>589</ele>
        <time>2012-07-08T14:10:38Z</time>
      </trkpt>
      <trkpt lat="44.08442" lon="7.10491">
        <ele>586</ele>
        <time>2012-07-08T14:10:47Z</time>
      </trkpt>
      <trkpt lat="44.08442" lon="7.10491">
        <ele>480.4</ele>
        <time>2012-07-08T14:10:58Z</time>
      </trkpt>
      <trkpt lat="44.08442" lon="7.10491">
        <ele>480.4</ele>
        <time>2012-07-08T14:11:48Z</time>
      </trkpt>
    </trkseg>
  </trk>
</gpx>